<?xml version="1.0" encoding="UTF-8" standalone="no" ?>
<gpx xmlns="http://www.topografix.com/GPX/1/1" xmlns:xsi="http://www.w3.org/2001/XMLSchema-instance" xsi:schemaLocation="http://www.topografix.com/GPX/1/1 http://www.topografix.com/GPX/1/1/gpx.xsd" version="1.1" creator="VisuGPX - https://www.visugpx.com">
  <metadata>
    <name>Coteaux de la Terrace</name>
    <desc><![CDATA[Petit balade dans le Gresivaudan pour les VTTistes.]]></desc>
  </metadata>
  <trk>
    <name><![CDATA[9/11/2013 09:48]]></name>
    <desc><![CDATA[]]></desc>
    <trkseg>
      <trkpt lat="45.2748" lon="5.87296">
        <ele>332</ele>
        <time>2013-09-11T07:49:22.000Z</time>
      </trkpt>
      <trkpt lat="45.27479" lon="5.87298">
        <ele>331.3</ele>
        <time>2013-09-11T07:50:08.000Z</time>
      </trkpt>
      <trkpt lat="45.27486" lon="5.87321">
        <ele>336.1</ele>
        <time>2013-09-11T07:50:13.000Z</time>
      </trkpt>
      <trkpt lat="45.2749" lon="5.87361">
        <ele>339.8</ele>
        <time>2013-09-11T07:50:18.000Z</time>
      </trkpt>
      <trkpt lat="45.27517" lon="5.87394">
        <ele>335.6</ele>
        <time>2013-09-11T07:50:23.000Z</time>
      </trkpt>
      <trkpt lat="45.27545" lon="5.87414">
        <ele>333.8</ele>
        <time>2013-09-11T07:50:28.000Z</time>
      </trkpt>
      <trkpt lat="45.27568" lon="5.87432">
        <ele>333.6</ele>
        <time>2013-09-11T07:50:32.000Z</time>
      </trkpt>
      <trkpt lat="45.27593" lon="5.87459">
        <ele>323.7</ele>
        <time>2013-09-11T07:50:37.000Z</time>
      </trkpt>
      <trkpt lat="45.27606" lon="5.87468">
        <ele>328.2</ele>
        <time>2013-09-11T07:50:42.000Z</time>
      </trkpt>
      <trkpt lat="45.27607" lon="5.87478">
        <ele>329.2</ele>
        <time>2013-09-11T07:50:47.000Z</time>
      </trkpt>
      <trkpt lat="45.27592" lon="5.87496">
        <ele>331.8</ele>
        <time>2013-09-11T07:50:52.000Z</time>
      </trkpt>
      <trkpt lat="45.27577" lon="5.87539">
        <ele>334.7</ele>
        <time>2013-09-11T07:50:58.000Z</time>
      </trkpt>
      <trkpt lat="45.2757" lon="5.87575">
        <ele>339.1</ele>
        <time>2013-09-11T07:51:03.000Z</time>
      </trkpt>
      <trkpt lat="45.27565" lon="5.87601">
        <ele>340.5</ele>
        <time>2013-09-11T07:51:08.000Z</time>
      </trkpt>
      <trkpt lat="45.27594" lon="5.87637">
        <ele>331.3</ele>
        <time>2013-09-11T07:51:12.000Z</time>
      </trkpt>
      <trkpt lat="45.27617" lon="5.87659">
        <ele>334.9</ele>
        <time>2013-09-11T07:51:17.000Z</time>
      </trkpt>
      <trkpt lat="45.27647" lon="5.87679">
        <ele>331.2</ele>
        <time>2013-09-11T07:51:22.000Z</time>
      </trkpt>
      <trkpt lat="45.27675" lon="5.87703">
        <ele>330.1</ele>
        <time>2013-09-11T07:51:27.000Z</time>
      </trkpt>
      <trkpt lat="45.27702" lon="5.87716">
        <ele>329.7</ele>
        <time>2013-09-11T07:51:32.000Z</time>
      </trkpt>
      <trkpt lat="45.27722" lon="5.87737">
        <ele>329</ele>
        <time>2013-09-11T07:51:37.000Z</time>
      </trkpt>
      <trkpt lat="45.27752" lon="5.87755">
        <ele>325.2</ele>
        <time>2013-09-11T07:51:42.000Z</time>
      </trkpt>
      <trkpt lat="45.27774" lon="5.87772">
        <ele>327.5</ele>
        <time>2013-09-11T07:51:47.000Z</time>
      </trkpt>
      <trkpt lat="45.27794" lon="5.87791">
        <ele>327.3</ele>
        <time>2013-09-11T07:51:52.000Z</time>
      </trkpt>
      <trkpt lat="45.27819" lon="5.87818">
        <ele>323.6</ele>
        <time>2013-09-11T07:51:57.000Z</time>
      </trkpt>
      <trkpt lat="45.27845" lon="5.87846">
        <ele>323.7</ele>
        <time>2013-09-11T07:52:02.000Z</time>
      </trkpt>
      <trkpt lat="45.27867" lon="5.87876">
        <ele>324.6</ele>
        <time>2013-09-11T07:52:07.000Z</time>
      </trkpt>
      <trkpt lat="45.2789" lon="5.87911">
        <ele>318.5</ele>
        <time>2013-09-11T07:52:12.000Z</time>
      </trkpt>
      <trkpt lat="45.27913" lon="5.87941">
        <ele>319.6</ele>
        <time>2013-09-11T07:52:17.000Z</time>
      </trkpt>
      <trkpt lat="45.27941" lon="5.87974">
        <ele>318.6</ele>
        <time>2013-09-11T07:52:23.000Z</time>
      </trkpt>
      <trkpt lat="45.27964" lon="5.87985">
        <ele>318.9</ele>
        <time>2013-09-11T07:52:27.000Z</time>
      </trkpt>
      <trkpt lat="45.2798" lon="5.87997">
        <ele>314.7</ele>
        <time>2013-09-11T07:52:33.000Z</time>
      </trkpt>
      <trkpt lat="45.27991" lon="5.88026">
        <ele>313.6</ele>
        <time>2013-09-11T07:52:37.000Z</time>
      </trkpt>
      <trkpt lat="45.28015" lon="5.88049">
        <ele>309.4</ele>
        <time>2013-09-11T07:52:42.000Z</time>
      </trkpt>
      <trkpt lat="45.28036" lon="5.88068">
        <ele>310.6</ele>
        <time>2013-09-11T07:52:47.000Z</time>
      </trkpt>
      <trkpt lat="45.28056" lon="5.88102">
        <ele>311</ele>
        <time>2013-09-11T07:52:52.000Z</time>
      </trkpt>
      <trkpt lat="45.28082" lon="5.88129">
        <ele>308</ele>
        <time>2013-09-11T07:52:57.000Z</time>
      </trkpt>
      <trkpt lat="45.28098" lon="5.88152">
        <ele>309.1</ele>
        <time>2013-09-11T07:53:03.000Z</time>
      </trkpt>
      <trkpt lat="45.28123" lon="5.88189">
        <ele>308.3</ele>
        <time>2013-09-11T07:53:08.000Z</time>
      </trkpt>
      <trkpt lat="45.2814" lon="5.88212">
        <ele>308.1</ele>
        <time>2013-09-11T07:53:12.000Z</time>
      </trkpt>
      <trkpt lat="45.28161" lon="5.88237">
        <ele>311.7</ele>
        <time>2013-09-11T07:53:17.000Z</time>
      </trkpt>
      <trkpt lat="45.28185" lon="5.88268">
        <ele>310.7</ele>
        <time>2013-09-11T07:53:22.000Z</time>
      </trkpt>
      <trkpt lat="45.28207" lon="5.88289">
        <ele>313.7</ele>
        <time>2013-09-11T07:53:27.000Z</time>
      </trkpt>
      <trkpt lat="45.28229" lon="5.88312">
        <ele>311.5</ele>
        <time>2013-09-11T07:53:32.000Z</time>
      </trkpt>
      <trkpt lat="45.28247" lon="5.88324">
        <ele>312.4</ele>
        <time>2013-09-11T07:53:37.000Z</time>
      </trkpt>
      <trkpt lat="45.28261" lon="5.88336">
        <ele>315.2</ele>
        <time>2013-09-11T07:53:43.000Z</time>
      </trkpt>
      <trkpt lat="45.28268" lon="5.88348">
        <ele>315.5</ele>
        <time>2013-09-11T07:53:47.000Z</time>
      </trkpt>
      <trkpt lat="45.28298" lon="5.88405">
        <ele>318.6</ele>
        <time>2013-09-11T07:53:53.000Z</time>
      </trkpt>
      <trkpt lat="45.2833" lon="5.88443">
        <ele>315.6</ele>
        <time>2013-09-11T07:53:58.000Z</time>
      </trkpt>
      <trkpt lat="45.28345" lon="5.88471">
        <ele>316.7</ele>
        <time>2013-09-11T07:54:02.000Z</time>
      </trkpt>
      <trkpt lat="45.28366" lon="5.8849">
        <ele>316</ele>
        <time>2013-09-11T07:54:08.000Z</time>
      </trkpt>
      <trkpt lat="45.28388" lon="5.88511">
        <ele>313.8</ele>
        <time>2013-09-11T07:54:12.000Z</time>
      </trkpt>
      <trkpt lat="45.28405" lon="5.88526">
        <ele>314.8</ele>
        <time>2013-09-11T07:54:17.000Z</time>
      </trkpt>
      <trkpt lat="45.28433" lon="5.8855">
        <ele>318</ele>
        <time>2013-09-11T07:54:23.000Z</time>
      </trkpt>
      <trkpt lat="45.28451" lon="5.88573">
        <ele>315.6</ele>
        <time>2013-09-11T07:54:27.000Z</time>
      </trkpt>
      <trkpt lat="45.28476" lon="5.88609">
        <ele>318</ele>
        <time>2013-09-11T07:54:33.000Z</time>
      </trkpt>
      <trkpt lat="45.28493" lon="5.88627">
        <ele>317.9</ele>
        <time>2013-09-11T07:54:37.000Z</time>
      </trkpt>
      <trkpt lat="45.28511" lon="5.88656">
        <ele>318.1</ele>
        <time>2013-09-11T07:54:43.000Z</time>
      </trkpt>
      <trkpt lat="45.28523" lon="5.88679">
        <ele>317.3</ele>
        <time>2013-09-11T07:54:47.000Z</time>
      </trkpt>
      <trkpt lat="45.28554" lon="5.8871">
        <ele>314</ele>
        <time>2013-09-11T07:54:53.000Z</time>
      </trkpt>
      <trkpt lat="45.28576" lon="5.8873">
        <ele>313.7</ele>
        <time>2013-09-11T07:54:57.000Z</time>
      </trkpt>
      <trkpt lat="45.28608" lon="5.88763">
        <ele>318.2</ele>
        <time>2013-09-11T07:55:03.000Z</time>
      </trkpt>
      <trkpt lat="45.28631" lon="5.88791">
        <ele>312.8</ele>
        <time>2013-09-11T07:55:07.000Z</time>
      </trkpt>
      <trkpt lat="45.2866" lon="5.88824">
        <ele>310.1</ele>
        <time>2013-09-11T07:55:13.000Z</time>
      </trkpt>
      <trkpt lat="45.28683" lon="5.88857">
        <ele>307.7</ele>
        <time>2013-09-11T07:55:18.000Z</time>
      </trkpt>
      <trkpt lat="45.28699" lon="5.88885">
        <ele>303.7</ele>
        <time>2013-09-11T07:55:22.000Z</time>
      </trkpt>
      <trkpt lat="45.28717" lon="5.88921">
        <ele>303.5</ele>
        <time>2013-09-11T07:55:27.000Z</time>
      </trkpt>
      <trkpt lat="45.28744" lon="5.88967">
        <ele>300.4</ele>
        <time>2013-09-11T07:55:33.000Z</time>
      </trkpt>
      <trkpt lat="45.28762" lon="5.88996">
        <ele>300.5</ele>
        <time>2013-09-11T07:55:37.000Z</time>
      </trkpt>
      <trkpt lat="45.28781" lon="5.89032">
        <ele>299.4</ele>
        <time>2013-09-11T07:55:42.000Z</time>
      </trkpt>
      <trkpt lat="45.28797" lon="5.89071">
        <ele>298.1</ele>
        <time>2013-09-11T07:55:48.000Z</time>
      </trkpt>
      <trkpt lat="45.28807" lon="5.89088">
        <ele>296.9</ele>
        <time>2013-09-11T07:55:52.000Z</time>
      </trkpt>
      <trkpt lat="45.28808" lon="5.89107">
        <ele>299.9</ele>
        <time>2013-09-11T07:55:58.000Z</time>
      </trkpt>
      <trkpt lat="45.28807" lon="5.8912">
        <ele>300.2</ele>
        <time>2013-09-11T07:56:03.000Z</time>
      </trkpt>
      <trkpt lat="45.28796" lon="5.8914">
        <ele>304.1</ele>
        <time>2013-09-11T07:56:08.000Z</time>
      </trkpt>
      <trkpt lat="45.28785" lon="5.89159">
        <ele>303.4</ele>
        <time>2013-09-11T07:56:12.000Z</time>
      </trkpt>
      <trkpt lat="45.28772" lon="5.89199">
        <ele>302.3</ele>
        <time>2013-09-11T07:56:18.000Z</time>
      </trkpt>
      <trkpt lat="45.28756" lon="5.89236">
        <ele>303.3</ele>
        <time>2013-09-11T07:56:23.000Z</time>
      </trkpt>
      <trkpt lat="45.28745" lon="5.89266">
        <ele>304.2</ele>
        <time>2013-09-11T07:56:28.000Z</time>
      </trkpt>
      <trkpt lat="45.28734" lon="5.89304">
        <ele>304</ele>
        <time>2013-09-11T07:56:33.000Z</time>
      </trkpt>
      <trkpt lat="45.28721" lon="5.89341">
        <ele>303.9</ele>
        <time>2013-09-11T07:56:38.000Z</time>
      </trkpt>
      <trkpt lat="45.28708" lon="5.8937">
        <ele>303.1</ele>
        <time>2013-09-11T07:56:42.000Z</time>
      </trkpt>
      <trkpt lat="45.28727" lon="5.8938">
        <ele>304</ele>
        <time>2013-09-11T07:56:47.000Z</time>
      </trkpt>
      <trkpt lat="45.28751" lon="5.89384">
        <ele>305</ele>
        <time>2013-09-11T07:56:52.000Z</time>
      </trkpt>
      <trkpt lat="45.28787" lon="5.89384">
        <ele>304.2</ele>
        <time>2013-09-11T07:56:57.000Z</time>
      </trkpt>
      <trkpt lat="45.28816" lon="5.89384">
        <ele>301.1</ele>
        <time>2013-09-11T07:57:02.000Z</time>
      </trkpt>
      <trkpt lat="45.2884" lon="5.89384">
        <ele>302.8</ele>
        <time>2013-09-11T07:57:07.000Z</time>
      </trkpt>
      <trkpt lat="45.28872" lon="5.89378">
        <ele>304.6</ele>
        <time>2013-09-11T07:57:12.000Z</time>
      </trkpt>
      <trkpt lat="45.28899" lon="5.89382">
        <ele>304.3</ele>
        <time>2013-09-11T07:57:17.000Z</time>
      </trkpt>
      <trkpt lat="45.28925" lon="5.89387">
        <ele>303.4</ele>
        <time>2013-09-11T07:57:22.000Z</time>
      </trkpt>
      <trkpt lat="45.28954" lon="5.894">
        <ele>305.8</ele>
        <time>2013-09-11T07:57:27.000Z</time>
      </trkpt>
      <trkpt lat="45.28987" lon="5.89415">
        <ele>305.4</ele>
        <time>2013-09-11T07:57:32.000Z</time>
      </trkpt>
      <trkpt lat="45.29015" lon="5.89431">
        <ele>306.2</ele>
        <time>2013-09-11T07:57:37.000Z</time>
      </trkpt>
      <trkpt lat="45.29044" lon="5.8944">
        <ele>304.9</ele>
        <time>2013-09-11T07:57:42.000Z</time>
      </trkpt>
      <trkpt lat="45.29054" lon="5.8947">
        <ele>307.3</ele>
        <time>2013-09-11T07:57:47.000Z</time>
      </trkpt>
      <trkpt lat="45.29052" lon="5.89515">
        <ele>303.2</ele>
        <time>2013-09-11T07:57:53.000Z</time>
      </trkpt>
      <trkpt lat="45.29041" lon="5.89555">
        <ele>302</ele>
        <time>2013-09-11T07:57:58.000Z</time>
      </trkpt>
      <trkpt lat="45.29023" lon="5.89586">
        <ele>301.5</ele>
        <time>2013-09-11T07:58:03.000Z</time>
      </trkpt>
      <trkpt lat="45.29006" lon="5.89631">
        <ele>302</ele>
        <time>2013-09-11T07:58:09.000Z</time>
      </trkpt>
      <trkpt lat="45.28986" lon="5.89675">
        <ele>301.6</ele>
        <time>2013-09-11T07:58:15.000Z</time>
      </trkpt>
      <trkpt lat="45.28979" lon="5.89694">
        <ele>299.4</ele>
        <time>2013-09-11T07:58:19.000Z</time>
      </trkpt>
      <trkpt lat="45.28968" lon="5.89716">
        <ele>300.1</ele>
        <time>2013-09-11T07:58:24.000Z</time>
      </trkpt>
      <trkpt lat="45.28956" lon="5.89749">
        <ele>297.6</ele>
        <time>2013-09-11T07:58:30.000Z</time>
      </trkpt>
      <trkpt lat="45.28948" lon="5.89777">
        <ele>298.1</ele>
        <time>2013-09-11T07:58:34.000Z</time>
      </trkpt>
      <trkpt lat="45.28943" lon="5.89789">
        <ele>298.1</ele>
        <time>2013-09-11T07:58:38.000Z</time>
      </trkpt>
      <trkpt lat="45.28942" lon="5.89806">
        <ele>300.7</ele>
        <time>2013-09-11T07:58:43.000Z</time>
      </trkpt>
      <trkpt lat="45.28952" lon="5.89827">
        <ele>302.3</ele>
        <time>2013-09-11T07:58:48.000Z</time>
      </trkpt>
      <trkpt lat="45.2896" lon="5.89884">
        <ele>306</ele>
        <time>2013-09-11T07:58:55.000Z</time>
      </trkpt>
      <trkpt lat="45.28966" lon="5.89926">
        <ele>306.2</ele>
        <time>2013-09-11T07:58:59.000Z</time>
      </trkpt>
      <trkpt lat="45.28973" lon="5.89962">
        <ele>305.4</ele>
        <time>2013-09-11T07:59:03.000Z</time>
      </trkpt>
      <trkpt lat="45.28987" lon="5.89995">
        <ele>308.8</ele>
        <time>2013-09-11T07:59:08.000Z</time>
      </trkpt>
      <trkpt lat="45.28998" lon="5.90042">
        <ele>308.1</ele>
        <time>2013-09-11T07:59:13.000Z</time>
      </trkpt>
      <trkpt lat="45.29012" lon="5.90083">
        <ele>306</ele>
        <time>2013-09-11T07:59:18.000Z</time>
      </trkpt>
      <trkpt lat="45.29017" lon="5.90115">
        <ele>307.2</ele>
        <time>2013-09-11T07:59:23.000Z</time>
      </trkpt>
      <trkpt lat="45.29026" lon="5.90142">
        <ele>308.5</ele>
        <time>2013-09-11T07:59:28.000Z</time>
      </trkpt>
      <trkpt lat="45.29034" lon="5.90172">
        <ele>310.4</ele>
        <time>2013-09-11T07:59:33.000Z</time>
      </trkpt>
      <trkpt lat="45.29034" lon="5.90204">
        <ele>312.9</ele>
        <time>2013-09-11T07:59:38.000Z</time>
      </trkpt>
      <trkpt lat="45.29042" lon="5.90247">
        <ele>314.3</ele>
        <time>2013-09-11T07:59:43.000Z</time>
      </trkpt>
      <trkpt lat="45.29045" lon="5.90276">
        <ele>314</ele>
        <time>2013-09-11T07:59:48.000Z</time>
      </trkpt>
      <trkpt lat="45.29045" lon="5.90294">
        <ele>312.2</ele>
        <time>2013-09-11T07:59:53.000Z</time>
      </trkpt>
      <trkpt lat="45.29049" lon="5.90298">
        <ele>311.6</ele>
        <time>2013-09-11T07:59:57.000Z</time>
      </trkpt>
      <trkpt lat="45.2906" lon="5.9034">
        <ele>287.8</ele>
        <time>2013-09-11T08:00:03.000Z</time>
      </trkpt>
      <trkpt lat="45.2904" lon="5.90352">
        <ele>289.1</ele>
        <time>2013-09-11T08:00:08.000Z</time>
      </trkpt>
      <trkpt lat="45.29017" lon="5.9036">
        <ele>290.8</ele>
        <time>2013-09-11T08:00:13.000Z</time>
      </trkpt>
      <trkpt lat="45.28994" lon="5.90373">
        <ele>285.2</ele>
        <time>2013-09-11T08:00:18.000Z</time>
      </trkpt>
      <trkpt lat="45.28966" lon="5.90385">
        <ele>285.1</ele>
        <time>2013-09-11T08:00:23.000Z</time>
      </trkpt>
      <trkpt lat="45.28942" lon="5.90397">
        <ele>286.5</ele>
        <time>2013-09-11T08:00:28.000Z</time>
      </trkpt>
      <trkpt lat="45.28915" lon="5.90404">
        <ele>287.2</ele>
        <time>2013-09-11T08:00:33.000Z</time>
      </trkpt>
      <trkpt lat="45.28892" lon="5.9041">
        <ele>285.8</ele>
        <time>2013-09-11T08:00:38.000Z</time>
      </trkpt>
      <trkpt lat="45.2887" lon="5.90421">
        <ele>286.1</ele>
        <time>2013-09-11T08:00:43.000Z</time>
      </trkpt>
      <trkpt lat="45.28853" lon="5.90428">
        <ele>287.3</ele>
        <time>2013-09-11T08:00:47.000Z</time>
      </trkpt>
      <trkpt lat="45.28827" lon="5.90435">
        <ele>287.6</ele>
        <time>2013-09-11T08:00:52.000Z</time>
      </trkpt>
      <trkpt lat="45.28799" lon="5.90449">
        <ele>282.1</ele>
        <time>2013-09-11T08:00:58.000Z</time>
      </trkpt>
      <trkpt lat="45.28774" lon="5.90458">
        <ele>283.6</ele>
        <time>2013-09-11T08:01:03.000Z</time>
      </trkpt>
      <trkpt lat="45.28754" lon="5.90465">
        <ele>282.7</ele>
        <time>2013-09-11T08:01:08.000Z</time>
      </trkpt>
      <trkpt lat="45.28731" lon="5.90477">
        <ele>283.5</ele>
        <time>2013-09-11T08:01:12.000Z</time>
      </trkpt>
      <trkpt lat="45.28706" lon="5.9049">
        <ele>284.7</ele>
        <time>2013-09-11T08:01:17.000Z</time>
      </trkpt>
      <trkpt lat="45.28683" lon="5.90499">
        <ele>283.4</ele>
        <time>2013-09-11T08:01:22.000Z</time>
      </trkpt>
      <trkpt lat="45.28657" lon="5.90511">
        <ele>284.7</ele>
        <time>2013-09-11T08:01:27.000Z</time>
      </trkpt>
      <trkpt lat="45.28624" lon="5.9052">
        <ele>284.7</ele>
        <time>2013-09-11T08:01:33.000Z</time>
      </trkpt>
      <trkpt lat="45.28596" lon="5.90528">
        <ele>284</ele>
        <time>2013-09-11T08:01:38.000Z</time>
      </trkpt>
      <trkpt lat="45.28578" lon="5.90533">
        <ele>282.4</ele>
        <time>2013-09-11T08:01:42.000Z</time>
      </trkpt>
      <trkpt lat="45.28555" lon="5.90544">
        <ele>286.5</ele>
        <time>2013-09-11T08:01:47.000Z</time>
      </trkpt>
      <trkpt lat="45.28538" lon="5.90551">
        <ele>285.1</ele>
        <time>2013-09-11T08:01:52.000Z</time>
      </trkpt>
      <trkpt lat="45.28531" lon="5.90542">
        <ele>285.3</ele>
        <time>2013-09-11T08:01:57.000Z</time>
      </trkpt>
      <trkpt lat="45.28526" lon="5.90532">
        <ele>285</ele>
        <time>2013-09-11T08:02:02.000Z</time>
      </trkpt>
      <trkpt lat="45.2851" lon="5.90536">
        <ele>286.2</ele>
        <time>2013-09-11T08:02:07.000Z</time>
      </trkpt>
      <trkpt lat="45.28495" lon="5.90552">
        <ele>286.1</ele>
        <time>2013-09-11T08:02:13.000Z</time>
      </trkpt>
      <trkpt lat="45.28499" lon="5.90563">
        <ele>286.3</ele>
        <time>2013-09-11T08:02:17.000Z</time>
      </trkpt>
      <trkpt lat="45.28515" lon="5.90579">
        <ele>286.8</ele>
        <time>2013-09-11T08:02:22.000Z</time>
      </trkpt>
      <trkpt lat="45.2854" lon="5.90599">
        <ele>286.4</ele>
        <time>2013-09-11T08:02:27.000Z</time>
      </trkpt>
      <trkpt lat="45.28572" lon="5.90617">
        <ele>286.5</ele>
        <time>2013-09-11T08:02:32.000Z</time>
      </trkpt>
      <trkpt lat="45.28597" lon="5.90638">
        <ele>285.7</ele>
        <time>2013-09-11T08:02:37.000Z</time>
      </trkpt>
      <trkpt lat="45.28622" lon="5.90658">
        <ele>286.7</ele>
        <time>2013-09-11T08:02:42.000Z</time>
      </trkpt>
      <trkpt lat="45.28649" lon="5.90677">
        <ele>289.8</ele>
        <time>2013-09-11T08:02:47.000Z</time>
      </trkpt>
      <trkpt lat="45.28677" lon="5.90692">
        <ele>288.4</ele>
        <time>2013-09-11T08:02:52.000Z</time>
      </trkpt>
      <trkpt lat="45.28702" lon="5.90711">
        <ele>289</ele>
        <time>2013-09-11T08:02:57.000Z</time>
      </trkpt>
      <trkpt lat="45.28726" lon="5.90728">
        <ele>288.5</ele>
        <time>2013-09-11T08:03:02.000Z</time>
      </trkpt>
      <trkpt lat="45.28751" lon="5.90748">
        <ele>287.7</ele>
        <time>2013-09-11T08:03:07.000Z</time>
      </trkpt>
      <trkpt lat="45.28776" lon="5.90765">
        <ele>288.5</ele>
        <time>2013-09-11T08:03:12.000Z</time>
      </trkpt>
      <trkpt lat="45.288" lon="5.90781">
        <ele>288.3</ele>
        <time>2013-09-11T08:03:17.000Z</time>
      </trkpt>
      <trkpt lat="45.28826" lon="5.90803">
        <ele>287.7</ele>
        <time>2013-09-11T08:03:22.000Z</time>
      </trkpt>
      <trkpt lat="45.28855" lon="5.90821">
        <ele>287.4</ele>
        <time>2013-09-11T08:03:27.000Z</time>
      </trkpt>
      <trkpt lat="45.28879" lon="5.90839">
        <ele>288.6</ele>
        <time>2013-09-11T08:03:32.000Z</time>
      </trkpt>
      <trkpt lat="45.28906" lon="5.90861">
        <ele>287.6</ele>
        <time>2013-09-11T08:03:37.000Z</time>
      </trkpt>
      <trkpt lat="45.28936" lon="5.90876">
        <ele>285.4</ele>
        <time>2013-09-11T08:03:42.000Z</time>
      </trkpt>
      <trkpt lat="45.28963" lon="5.90898">
        <ele>284.4</ele>
        <time>2013-09-11T08:03:47.000Z</time>
      </trkpt>
      <trkpt lat="45.28987" lon="5.90918">
        <ele>284.3</ele>
        <time>2013-09-11T08:03:52.000Z</time>
      </trkpt>
      <trkpt lat="45.29014" lon="5.90945">
        <ele>285.6</ele>
        <time>2013-09-11T08:03:57.000Z</time>
      </trkpt>
      <trkpt lat="45.29042" lon="5.9096">
        <ele>286.9</ele>
        <time>2013-09-11T08:04:02.000Z</time>
      </trkpt>
      <trkpt lat="45.29074" lon="5.90979">
        <ele>284.2</ele>
        <time>2013-09-11T08:04:07.000Z</time>
      </trkpt>
      <trkpt lat="45.29103" lon="5.91001">
        <ele>285.1</ele>
        <time>2013-09-11T08:04:12.000Z</time>
      </trkpt>
      <trkpt lat="45.29129" lon="5.91017">
        <ele>287.1</ele>
        <time>2013-09-11T08:04:17.000Z</time>
      </trkpt>
      <trkpt lat="45.2916" lon="5.91022">
        <ele>287.5</ele>
        <time>2013-09-11T08:04:22.000Z</time>
      </trkpt>
      <trkpt lat="45.29193" lon="5.91033">
        <ele>287</ele>
        <time>2013-09-11T08:04:27.000Z</time>
      </trkpt>
      <trkpt lat="45.29223" lon="5.91046">
        <ele>289.4</ele>
        <time>2013-09-11T08:04:32.000Z</time>
      </trkpt>
      <trkpt lat="45.2925" lon="5.91059">
        <ele>286.2</ele>
        <time>2013-09-11T08:04:37.000Z</time>
      </trkpt>
      <trkpt lat="45.29276" lon="5.91075">
        <ele>283.2</ele>
        <time>2013-09-11T08:04:42.000Z</time>
      </trkpt>
      <trkpt lat="45.29302" lon="5.91095">
        <ele>283.1</ele>
        <time>2013-09-11T08:04:47.000Z</time>
      </trkpt>
      <trkpt lat="45.2933" lon="5.91124">
        <ele>286.3</ele>
        <time>2013-09-11T08:04:52.000Z</time>
      </trkpt>
      <trkpt lat="45.29357" lon="5.91142">
        <ele>289.8</ele>
        <time>2013-09-11T08:04:57.000Z</time>
      </trkpt>
      <trkpt lat="45.29389" lon="5.91161">
        <ele>288.8</ele>
        <time>2013-09-11T08:05:02.000Z</time>
      </trkpt>
      <trkpt lat="45.29417" lon="5.91173">
        <ele>287.8</ele>
        <time>2013-09-11T08:05:07.000Z</time>
      </trkpt>
      <trkpt lat="45.29447" lon="5.91189">
        <ele>288.4</ele>
        <time>2013-09-11T08:05:12.000Z</time>
      </trkpt>
      <trkpt lat="45.29468" lon="5.91203">
        <ele>287.5</ele>
        <time>2013-09-11T08:05:17.000Z</time>
      </trkpt>
      <trkpt lat="45.29499" lon="5.91221">
        <ele>287.5</ele>
        <time>2013-09-11T08:05:22.000Z</time>
      </trkpt>
      <trkpt lat="45.29529" lon="5.91236">
        <ele>287.9</ele>
        <time>2013-09-11T08:05:27.000Z</time>
      </trkpt>
      <trkpt lat="45.29557" lon="5.91256">
        <ele>289.3</ele>
        <time>2013-09-11T08:05:32.000Z</time>
      </trkpt>
      <trkpt lat="45.29586" lon="5.91273">
        <ele>288.7</ele>
        <time>2013-09-11T08:05:37.000Z</time>
      </trkpt>
      <trkpt lat="45.29618" lon="5.91286">
        <ele>288.3</ele>
        <time>2013-09-11T08:05:42.000Z</time>
      </trkpt>
      <trkpt lat="45.29647" lon="5.91305">
        <ele>288.9</ele>
        <time>2013-09-11T08:05:47.000Z</time>
      </trkpt>
      <trkpt lat="45.29672" lon="5.91324">
        <ele>290.2</ele>
        <time>2013-09-11T08:05:52.000Z</time>
      </trkpt>
      <trkpt lat="45.29695" lon="5.91335">
        <ele>288.9</ele>
        <time>2013-09-11T08:05:57.000Z</time>
      </trkpt>
      <trkpt lat="45.297" lon="5.91341">
        <ele>284.9</ele>
        <time>2013-09-11T08:06:02.000Z</time>
      </trkpt>
      <trkpt lat="45.29693" lon="5.91357">
        <ele>281.8</ele>
        <time>2013-09-11T08:06:07.000Z</time>
      </trkpt>
      <trkpt lat="45.29678" lon="5.91385">
        <ele>281.8</ele>
        <time>2013-09-11T08:06:13.000Z</time>
      </trkpt>
      <trkpt lat="45.29652" lon="5.91424">
        <ele>281.1</ele>
        <time>2013-09-11T08:06:18.000Z</time>
      </trkpt>
      <trkpt lat="45.29633" lon="5.91455">
        <ele>279.8</ele>
        <time>2013-09-11T08:06:23.000Z</time>
      </trkpt>
      <trkpt lat="45.29605" lon="5.91498">
        <ele>280.8</ele>
        <time>2013-09-11T08:06:29.000Z</time>
      </trkpt>
      <trkpt lat="45.29601" lon="5.91513">
        <ele>281.4</ele>
        <time>2013-09-11T08:06:33.000Z</time>
      </trkpt>
      <trkpt lat="45.29621" lon="5.91529">
        <ele>279</ele>
        <time>2013-09-11T08:06:38.000Z</time>
      </trkpt>
      <trkpt lat="45.29643" lon="5.91538">
        <ele>277.5</ele>
        <time>2013-09-11T08:06:42.000Z</time>
      </trkpt>
      <trkpt lat="45.29666" lon="5.9155">
        <ele>277.3</ele>
        <time>2013-09-11T08:06:47.000Z</time>
      </trkpt>
      <trkpt lat="45.29671" lon="5.91564">
        <ele>278.7</ele>
        <time>2013-09-11T08:06:52.000Z</time>
      </trkpt>
      <trkpt lat="45.29668" lon="5.91568">
        <ele>279.3</ele>
        <time>2013-09-11T08:07:02.000Z</time>
      </trkpt>
      <trkpt lat="45.29665" lon="5.91573">
        <ele>280.9</ele>
        <time>2013-09-11T08:07:07.000Z</time>
      </trkpt>
      <trkpt lat="45.29653" lon="5.91588">
        <ele>284.3</ele>
        <time>2013-09-11T08:07:13.000Z</time>
      </trkpt>
      <trkpt lat="45.29626" lon="5.91625">
        <ele>285.2</ele>
        <time>2013-09-11T08:07:18.000Z</time>
      </trkpt>
      <trkpt lat="45.296" lon="5.91658">
        <ele>287.1</ele>
        <time>2013-09-11T08:07:24.000Z</time>
      </trkpt>
      <trkpt lat="45.29586" lon="5.91679">
        <ele>285</ele>
        <time>2013-09-11T08:07:28.000Z</time>
      </trkpt>
      <trkpt lat="45.29569" lon="5.91706">
        <ele>285.5</ele>
        <time>2013-09-11T08:07:33.000Z</time>
      </trkpt>
      <trkpt lat="45.29548" lon="5.91736">
        <ele>286.1</ele>
        <time>2013-09-11T08:07:38.000Z</time>
      </trkpt>
      <trkpt lat="45.29526" lon="5.91764">
        <ele>286.2</ele>
        <time>2013-09-11T08:07:43.000Z</time>
      </trkpt>
      <trkpt lat="45.29513" lon="5.91783">
        <ele>285</ele>
        <time>2013-09-11T08:07:48.000Z</time>
      </trkpt>
      <trkpt lat="45.29503" lon="5.91797">
        <ele>285.3</ele>
        <time>2013-09-11T08:07:53.000Z</time>
      </trkpt>
      <trkpt lat="45.29496" lon="5.91822">
        <ele>288.4</ele>
        <time>2013-09-11T08:07:57.000Z</time>
      </trkpt>
      <trkpt lat="45.29479" lon="5.91851">
        <ele>288</ele>
        <time>2013-09-11T08:08:03.000Z</time>
      </trkpt>
      <trkpt lat="45.29462" lon="5.91883">
        <ele>289</ele>
        <time>2013-09-11T08:08:08.000Z</time>
      </trkpt>
      <trkpt lat="45.29448" lon="5.91909">
        <ele>289.6</ele>
        <time>2013-09-11T08:08:13.000Z</time>
      </trkpt>
      <trkpt lat="45.29444" lon="5.91933">
        <ele>293.7</ele>
        <time>2013-09-11T08:08:18.000Z</time>
      </trkpt>
      <trkpt lat="45.29459" lon="5.91949">
        <ele>293.9</ele>
        <time>2013-09-11T08:08:23.000Z</time>
      </trkpt>
      <trkpt lat="45.29482" lon="5.91962">
        <ele>294.9</ele>
        <time>2013-09-11T08:08:28.000Z</time>
      </trkpt>
      <trkpt lat="45.29514" lon="5.91986">
        <ele>296</ele>
        <time>2013-09-11T08:08:33.000Z</time>
      </trkpt>
      <trkpt lat="45.29544" lon="5.92001">
        <ele>297.9</ele>
        <time>2013-09-11T08:08:38.000Z</time>
      </trkpt>
      <trkpt lat="45.29568" lon="5.92017">
        <ele>297.1</ele>
        <time>2013-09-11T08:08:43.000Z</time>
      </trkpt>
      <trkpt lat="45.29593" lon="5.92034">
        <ele>298.7</ele>
        <time>2013-09-11T08:08:48.000Z</time>
      </trkpt>
      <trkpt lat="45.29623" lon="5.92055">
        <ele>296.4</ele>
        <time>2013-09-11T08:08:53.000Z</time>
      </trkpt>
      <trkpt lat="45.29644" lon="5.92069">
        <ele>296.8</ele>
        <time>2013-09-11T08:08:58.000Z</time>
      </trkpt>
      <trkpt lat="45.29666" lon="5.92082">
        <ele>298.1</ele>
        <time>2013-09-11T08:09:03.000Z</time>
      </trkpt>
      <trkpt lat="45.29691" lon="5.92097">
        <ele>298.9</ele>
        <time>2013-09-11T08:09:08.000Z</time>
      </trkpt>
      <trkpt lat="45.29717" lon="5.92112">
        <ele>298.6</ele>
        <time>2013-09-11T08:09:13.000Z</time>
      </trkpt>
      <trkpt lat="45.29743" lon="5.92133">
        <ele>298.5</ele>
        <time>2013-09-11T08:09:18.000Z</time>
      </trkpt>
      <trkpt lat="45.29766" lon="5.92159">
        <ele>299.4</ele>
        <time>2013-09-11T08:09:23.000Z</time>
      </trkpt>
      <trkpt lat="45.29789" lon="5.92175">
        <ele>300.8</ele>
        <time>2013-09-11T08:09:28.000Z</time>
      </trkpt>
      <trkpt lat="45.29807" lon="5.92184">
        <ele>301.5</ele>
        <time>2013-09-11T08:09:33.000Z</time>
      </trkpt>
      <trkpt lat="45.29825" lon="5.92207">
        <ele>295.9</ele>
        <time>2013-09-11T08:09:38.000Z</time>
      </trkpt>
      <trkpt lat="45.29826" lon="5.92227">
        <ele>297.8</ele>
        <time>2013-09-11T08:09:43.000Z</time>
      </trkpt>
      <trkpt lat="45.29823" lon="5.92243">
        <ele>299.8</ele>
        <time>2013-09-11T08:09:48.000Z</time>
      </trkpt>
      <trkpt lat="45.2981" lon="5.92271">
        <ele>302.1</ele>
        <time>2013-09-11T08:09:53.000Z</time>
      </trkpt>
      <trkpt lat="45.29794" lon="5.92301">
        <ele>303</ele>
        <time>2013-09-11T08:09:59.000Z</time>
      </trkpt>
      <trkpt lat="45.29785" lon="5.92316">
        <ele>304</ele>
        <time>2013-09-11T08:10:03.000Z</time>
      </trkpt>
      <trkpt lat="45.29774" lon="5.92343">
        <ele>308.7</ele>
        <time>2013-09-11T08:10:08.000Z</time>
      </trkpt>
      <trkpt lat="45.29766" lon="5.92398">
        <ele>309.4</ele>
        <time>2013-09-11T08:10:13.000Z</time>
      </trkpt>
      <trkpt lat="45.29754" lon="5.92421">
        <ele>298.9</ele>
        <time>2013-09-11T08:10:18.000Z</time>
      </trkpt>
      <trkpt lat="45.29742" lon="5.92428">
        <ele>302.1</ele>
        <time>2013-09-11T08:10:23.000Z</time>
      </trkpt>
      <trkpt lat="45.29736" lon="5.92428">
        <ele>303.5</ele>
        <time>2013-09-11T08:10:28.000Z</time>
      </trkpt>
      <trkpt lat="45.29714" lon="5.92429">
        <ele>307.3</ele>
        <time>2013-09-11T08:10:33.000Z</time>
      </trkpt>
      <trkpt lat="45.29705" lon="5.92436">
        <ele>305.7</ele>
        <time>2013-09-11T08:10:38.000Z</time>
      </trkpt>
      <trkpt lat="45.29695" lon="5.9243">
        <ele>303.5</ele>
        <time>2013-09-11T08:10:43.000Z</time>
      </trkpt>
      <trkpt lat="45.29691" lon="5.92424">
        <ele>304.3</ele>
        <time>2013-09-11T08:10:48.000Z</time>
      </trkpt>
      <trkpt lat="45.29681" lon="5.92424">
        <ele>306</ele>
        <time>2013-09-11T08:10:53.000Z</time>
      </trkpt>
      <trkpt lat="45.29664" lon="5.9243">
        <ele>312</ele>
        <time>2013-09-11T08:10:58.000Z</time>
      </trkpt>
      <trkpt lat="45.29653" lon="5.92432">
        <ele>314.8</ele>
        <time>2013-09-11T08:11:03.000Z</time>
      </trkpt>
      <trkpt lat="45.2952" lon="5.92441">
        <ele>302.3</ele>
        <time>2013-09-11T08:11:09.000Z</time>
      </trkpt>
      <trkpt lat="45.29472" lon="5.92481">
        <ele>305.7</ele>
        <time>2013-09-11T08:11:14.000Z</time>
      </trkpt>
      <trkpt lat="45.29455" lon="5.92512">
        <ele>305.4</ele>
        <time>2013-09-11T08:11:18.000Z</time>
      </trkpt>
      <trkpt lat="45.29423" lon="5.9253">
        <ele>307.2</ele>
        <time>2013-09-11T08:11:23.000Z</time>
      </trkpt>
      <trkpt lat="45.29402" lon="5.92573">
        <ele>303.3</ele>
        <time>2013-09-11T08:11:28.000Z</time>
      </trkpt>
      <trkpt lat="45.29386" lon="5.92586">
        <ele>304.1</ele>
        <time>2013-09-11T08:11:32.000Z</time>
      </trkpt>
      <trkpt lat="45.2937" lon="5.92603">
        <ele>302.1</ele>
        <time>2013-09-11T08:11:37.000Z</time>
      </trkpt>
      <trkpt lat="45.29359" lon="5.92624">
        <ele>297.9</ele>
        <time>2013-09-11T08:11:43.000Z</time>
      </trkpt>
      <trkpt lat="45.2937" lon="5.92674">
        <ele>290.6</ele>
        <time>2013-09-11T08:11:47.000Z</time>
      </trkpt>
      <trkpt lat="45.29386" lon="5.92692">
        <ele>291.9</ele>
        <time>2013-09-11T08:11:52.000Z</time>
      </trkpt>
      <trkpt lat="45.29411" lon="5.92701">
        <ele>295.6</ele>
        <time>2013-09-11T08:11:57.000Z</time>
      </trkpt>
      <trkpt lat="45.29444" lon="5.92715">
        <ele>298</ele>
        <time>2013-09-11T08:12:03.000Z</time>
      </trkpt>
      <trkpt lat="45.2947" lon="5.92733">
        <ele>296.6</ele>
        <time>2013-09-11T08:12:07.000Z</time>
      </trkpt>
      <trkpt lat="45.29502" lon="5.92743">
        <ele>297.5</ele>
        <time>2013-09-11T08:12:12.000Z</time>
      </trkpt>
      <trkpt lat="45.29528" lon="5.9276">
        <ele>298.6</ele>
        <time>2013-09-11T08:12:17.000Z</time>
      </trkpt>
      <trkpt lat="45.29552" lon="5.92778">
        <ele>298.3</ele>
        <time>2013-09-11T08:12:22.000Z</time>
      </trkpt>
      <trkpt lat="45.29581" lon="5.92782">
        <ele>297.1</ele>
        <time>2013-09-11T08:12:27.000Z</time>
      </trkpt>
      <trkpt lat="45.29602" lon="5.92795">
        <ele>300.7</ele>
        <time>2013-09-11T08:12:33.000Z</time>
      </trkpt>
      <trkpt lat="45.29614" lon="5.92796">
        <ele>300.7</ele>
        <time>2013-09-11T08:12:37.000Z</time>
      </trkpt>
      <trkpt lat="45.29627" lon="5.92802">
        <ele>303.7</ele>
        <time>2013-09-11T08:12:42.000Z</time>
      </trkpt>
      <trkpt lat="45.29653" lon="5.9281">
        <ele>302.5</ele>
        <time>2013-09-11T08:12:47.000Z</time>
      </trkpt>
      <trkpt lat="45.29676" lon="5.92825">
        <ele>303.5</ele>
        <time>2013-09-11T08:12:53.000Z</time>
      </trkpt>
      <trkpt lat="45.29706" lon="5.92833">
        <ele>315.5</ele>
        <time>2013-09-11T08:12:58.000Z</time>
      </trkpt>
      <trkpt lat="45.29742" lon="5.92861">
        <ele>311.6</ele>
        <time>2013-09-11T08:13:03.000Z</time>
      </trkpt>
      <trkpt lat="45.29766" lon="5.92885">
        <ele>308.5</ele>
        <time>2013-09-11T08:13:07.000Z</time>
      </trkpt>
      <trkpt lat="45.29801" lon="5.92895">
        <ele>311.6</ele>
        <time>2013-09-11T08:13:12.000Z</time>
      </trkpt>
      <trkpt lat="45.29831" lon="5.92915">
        <ele>312</ele>
        <time>2013-09-11T08:13:17.000Z</time>
      </trkpt>
      <trkpt lat="45.29861" lon="5.92925">
        <ele>314.8</ele>
        <time>2013-09-11T08:13:22.000Z</time>
      </trkpt>
      <trkpt lat="45.29882" lon="5.9294">
        <ele>313.8</ele>
        <time>2013-09-11T08:13:27.000Z</time>
      </trkpt>
      <trkpt lat="45.29912" lon="5.92945">
        <ele>314.6</ele>
        <time>2013-09-11T08:13:32.000Z</time>
      </trkpt>
      <trkpt lat="45.29954" lon="5.9294">
        <ele>315.9</ele>
        <time>2013-09-11T08:13:37.000Z</time>
      </trkpt>
      <trkpt lat="45.29986" lon="5.92941">
        <ele>317.7</ele>
        <time>2013-09-11T08:13:42.000Z</time>
      </trkpt>
      <trkpt lat="45.30015" lon="5.92944">
        <ele>319.8</ele>
        <time>2013-09-11T08:13:47.000Z</time>
      </trkpt>
      <trkpt lat="45.30042" lon="5.92953">
        <ele>319.1</ele>
        <time>2013-09-11T08:13:52.000Z</time>
      </trkpt>
      <trkpt lat="45.30065" lon="5.92958">
        <ele>319</ele>
        <time>2013-09-11T08:13:57.000Z</time>
      </trkpt>
      <trkpt lat="45.30096" lon="5.92964">
        <ele>317.8</ele>
        <time>2013-09-11T08:14:02.000Z</time>
      </trkpt>
      <trkpt lat="45.30133" lon="5.92966">
        <ele>314.5</ele>
        <time>2013-09-11T08:14:07.000Z</time>
      </trkpt>
      <trkpt lat="45.30167" lon="5.92972">
        <ele>315.5</ele>
        <time>2013-09-11T08:14:13.000Z</time>
      </trkpt>
      <trkpt lat="45.3018" lon="5.9298">
        <ele>314.3</ele>
        <time>2013-09-11T08:14:17.000Z</time>
      </trkpt>
      <trkpt lat="45.30202" lon="5.9298">
        <ele>316.6</ele>
        <time>2013-09-11T08:14:22.000Z</time>
      </trkpt>
      <trkpt lat="45.30235" lon="5.93008">
        <ele>311.5</ele>
        <time>2013-09-11T08:14:28.000Z</time>
      </trkpt>
      <trkpt lat="45.30259" lon="5.93016">
        <ele>317.1</ele>
        <time>2013-09-11T08:14:32.000Z</time>
      </trkpt>
      <trkpt lat="45.303" lon="5.93043">
        <ele>315.4</ele>
        <time>2013-09-11T08:14:38.000Z</time>
      </trkpt>
      <trkpt lat="45.30321" lon="5.93065">
        <ele>317.8</ele>
        <time>2013-09-11T08:14:42.000Z</time>
      </trkpt>
      <trkpt lat="45.30364" lon="5.93076">
        <ele>315.8</ele>
        <time>2013-09-11T08:14:48.000Z</time>
      </trkpt>
      <trkpt lat="45.30389" lon="5.93076">
        <ele>316</ele>
        <time>2013-09-11T08:14:52.000Z</time>
      </trkpt>
      <trkpt lat="45.30422" lon="5.93087">
        <ele>315.7</ele>
        <time>2013-09-11T08:14:57.000Z</time>
      </trkpt>
      <trkpt lat="45.30452" lon="5.93092">
        <ele>317.6</ele>
        <time>2013-09-11T08:15:03.000Z</time>
      </trkpt>
      <trkpt lat="45.30485" lon="5.93098">
        <ele>318.5</ele>
        <time>2013-09-11T08:15:08.000Z</time>
      </trkpt>
      <trkpt lat="45.30509" lon="5.93107">
        <ele>313.9</ele>
        <time>2013-09-11T08:15:12.000Z</time>
      </trkpt>
      <trkpt lat="45.30536" lon="5.93122">
        <ele>313.9</ele>
        <time>2013-09-11T08:15:17.000Z</time>
      </trkpt>
      <trkpt lat="45.30582" lon="5.93128">
        <ele>317.4</ele>
        <time>2013-09-11T08:15:23.000Z</time>
      </trkpt>
      <trkpt lat="45.30605" lon="5.93132">
        <ele>315</ele>
        <time>2013-09-11T08:15:27.000Z</time>
      </trkpt>
      <trkpt lat="45.30626" lon="5.93131">
        <ele>312.3</ele>
        <time>2013-09-11T08:15:33.000Z</time>
      </trkpt>
      <trkpt lat="45.30639" lon="5.9314">
        <ele>312.3</ele>
        <time>2013-09-11T08:15:37.000Z</time>
      </trkpt>
      <trkpt lat="45.30659" lon="5.93139">
        <ele>322.1</ele>
        <time>2013-09-11T08:15:42.000Z</time>
      </trkpt>
      <trkpt lat="45.30672" lon="5.93129">
        <ele>323.7</ele>
        <time>2013-09-11T08:15:47.000Z</time>
      </trkpt>
      <trkpt lat="45.30689" lon="5.93104">
        <ele>327.7</ele>
        <time>2013-09-11T08:15:52.000Z</time>
      </trkpt>
      <trkpt lat="45.30701" lon="5.93089">
        <ele>330.3</ele>
        <time>2013-09-11T08:15:57.000Z</time>
      </trkpt>
      <trkpt lat="45.30735" lon="5.93066">
        <ele>338.2</ele>
        <time>2013-09-11T08:16:03.000Z</time>
      </trkpt>
      <trkpt lat="45.30774" lon="5.93048">
        <ele>316.1</ele>
        <time>2013-09-11T08:16:07.000Z</time>
      </trkpt>
      <trkpt lat="45.3079" lon="5.93042">
        <ele>300.1</ele>
        <time>2013-09-11T08:16:12.000Z</time>
      </trkpt>
      <trkpt lat="45.30784" lon="5.93052">
        <ele>300.3</ele>
        <time>2013-09-11T08:16:17.000Z</time>
      </trkpt>
      <trkpt lat="45.30774" lon="5.93073">
        <ele>299.2</ele>
        <time>2013-09-11T08:16:22.000Z</time>
      </trkpt>
      <trkpt lat="45.30753" lon="5.93088">
        <ele>298.7</ele>
        <time>2013-09-11T08:16:28.000Z</time>
      </trkpt>
      <trkpt lat="45.30739" lon="5.93111">
        <ele>302.4</ele>
        <time>2013-09-11T08:16:33.000Z</time>
      </trkpt>
      <trkpt lat="45.30724" lon="5.93137">
        <ele>302.3</ele>
        <time>2013-09-11T08:16:38.000Z</time>
      </trkpt>
      <trkpt lat="45.30727" lon="5.9319">
        <ele>295.4</ele>
        <time>2013-09-11T08:16:43.000Z</time>
      </trkpt>
      <trkpt lat="45.30748" lon="5.93207">
        <ele>295.5</ele>
        <time>2013-09-11T08:16:47.000Z</time>
      </trkpt>
      <trkpt lat="45.30774" lon="5.93228">
        <ele>293.4</ele>
        <time>2013-09-11T08:16:52.000Z</time>
      </trkpt>
      <trkpt lat="45.30798" lon="5.9325">
        <ele>289.9</ele>
        <time>2013-09-11T08:16:57.000Z</time>
      </trkpt>
      <trkpt lat="45.30821" lon="5.93264">
        <ele>287.8</ele>
        <time>2013-09-11T08:17:02.000Z</time>
      </trkpt>
      <trkpt lat="45.30832" lon="5.93284">
        <ele>288.3</ele>
        <time>2013-09-11T08:17:07.000Z</time>
      </trkpt>
      <trkpt lat="45.30859" lon="5.93302">
        <ele>290.7</ele>
        <time>2013-09-11T08:17:12.000Z</time>
      </trkpt>
      <trkpt lat="45.30875" lon="5.93326">
        <ele>289.3</ele>
        <time>2013-09-11T08:17:17.000Z</time>
      </trkpt>
      <trkpt lat="45.30892" lon="5.93351">
        <ele>289.7</ele>
        <time>2013-09-11T08:17:22.000Z</time>
      </trkpt>
      <trkpt lat="45.30915" lon="5.93377">
        <ele>290.5</ele>
        <time>2013-09-11T08:17:27.000Z</time>
      </trkpt>
      <trkpt lat="45.30934" lon="5.93395">
        <ele>289.1</ele>
        <time>2013-09-11T08:17:32.000Z</time>
      </trkpt>
      <trkpt lat="45.30957" lon="5.9342">
        <ele>289.7</ele>
        <time>2013-09-11T08:17:37.000Z</time>
      </trkpt>
      <trkpt lat="45.30979" lon="5.93446">
        <ele>289.2</ele>
        <time>2013-09-11T08:17:42.000Z</time>
      </trkpt>
      <trkpt lat="45.31" lon="5.93471">
        <ele>283.2</ele>
        <time>2013-09-11T08:17:47.000Z</time>
      </trkpt>
      <trkpt lat="45.31017" lon="5.93495">
        <ele>284.3</ele>
        <time>2013-09-11T08:17:52.000Z</time>
      </trkpt>
      <trkpt lat="45.31036" lon="5.93519">
        <ele>286.5</ele>
        <time>2013-09-11T08:17:57.000Z</time>
      </trkpt>
      <trkpt lat="45.31053" lon="5.93539">
        <ele>287.7</ele>
        <time>2013-09-11T08:18:02.000Z</time>
      </trkpt>
      <trkpt lat="45.31072" lon="5.93562">
        <ele>288</ele>
        <time>2013-09-11T08:18:07.000Z</time>
      </trkpt>
      <trkpt lat="45.31092" lon="5.93581">
        <ele>287.1</ele>
        <time>2013-09-11T08:18:12.000Z</time>
      </trkpt>
      <trkpt lat="45.31107" lon="5.93604">
        <ele>286.7</ele>
        <time>2013-09-11T08:18:17.000Z</time>
      </trkpt>
      <trkpt lat="45.31126" lon="5.93632">
        <ele>290.2</ele>
        <time>2013-09-11T08:18:22.000Z</time>
      </trkpt>
      <trkpt lat="45.31145" lon="5.93663">
        <ele>287.8</ele>
        <time>2013-09-11T08:18:27.000Z</time>
      </trkpt>
      <trkpt lat="45.31165" lon="5.93687">
        <ele>290.4</ele>
        <time>2013-09-11T08:18:32.000Z</time>
      </trkpt>
      <trkpt lat="45.31176" lon="5.93711">
        <ele>290.9</ele>
        <time>2013-09-11T08:18:37.000Z</time>
      </trkpt>
      <trkpt lat="45.31196" lon="5.93735">
        <ele>289.5</ele>
        <time>2013-09-11T08:18:42.000Z</time>
      </trkpt>
      <trkpt lat="45.31214" lon="5.93764">
        <ele>290.5</ele>
        <time>2013-09-11T08:18:47.000Z</time>
      </trkpt>
      <trkpt lat="45.3123" lon="5.93793">
        <ele>291.2</ele>
        <time>2013-09-11T08:18:52.000Z</time>
      </trkpt>
      <trkpt lat="45.31244" lon="5.9382">
        <ele>290.9</ele>
        <time>2013-09-11T08:18:57.000Z</time>
      </trkpt>
      <trkpt lat="45.31265" lon="5.93851">
        <ele>289</ele>
        <time>2013-09-11T08:19:02.000Z</time>
      </trkpt>
      <trkpt lat="45.31283" lon="5.93878">
        <ele>287.7</ele>
        <time>2013-09-11T08:19:07.000Z</time>
      </trkpt>
      <trkpt lat="45.31303" lon="5.93901">
        <ele>286.2</ele>
        <time>2013-09-11T08:19:12.000Z</time>
      </trkpt>
      <trkpt lat="45.31316" lon="5.93926">
        <ele>285.8</ele>
        <time>2013-09-11T08:19:17.000Z</time>
      </trkpt>
      <trkpt lat="45.3133" lon="5.93952">
        <ele>283.5</ele>
        <time>2013-09-11T08:19:22.000Z</time>
      </trkpt>
      <trkpt lat="45.3135" lon="5.9398">
        <ele>284.3</ele>
        <time>2013-09-11T08:19:27.000Z</time>
      </trkpt>
      <trkpt lat="45.31367" lon="5.94006">
        <ele>284.9</ele>
        <time>2013-09-11T08:19:32.000Z</time>
      </trkpt>
      <trkpt lat="45.31386" lon="5.94034">
        <ele>285.8</ele>
        <time>2013-09-11T08:19:37.000Z</time>
      </trkpt>
      <trkpt lat="45.31401" lon="5.94062">
        <ele>284.2</ele>
        <time>2013-09-11T08:19:42.000Z</time>
      </trkpt>
      <trkpt lat="45.31418" lon="5.94085">
        <ele>284.8</ele>
        <time>2013-09-11T08:19:47.000Z</time>
      </trkpt>
      <trkpt lat="45.31427" lon="5.94099">
        <ele>283.8</ele>
        <time>2013-09-11T08:19:52.000Z</time>
      </trkpt>
      <trkpt lat="45.31446" lon="5.94113">
        <ele>283.3</ele>
        <time>2013-09-11T08:19:57.000Z</time>
      </trkpt>
      <trkpt lat="45.31452" lon="5.94131">
        <ele>282</ele>
        <time>2013-09-11T08:20:02.000Z</time>
      </trkpt>
      <trkpt lat="45.31476" lon="5.94169">
        <ele>284.6</ele>
        <time>2013-09-11T08:20:08.000Z</time>
      </trkpt>
      <trkpt lat="45.31487" lon="5.94176">
        <ele>291.5</ele>
        <time>2013-09-11T08:20:12.000Z</time>
      </trkpt>
      <trkpt lat="45.31503" lon="5.94181">
        <ele>301.4</ele>
        <time>2013-09-11T08:20:18.000Z</time>
      </trkpt>
      <trkpt lat="45.31523" lon="5.9417">
        <ele>309.4</ele>
        <time>2013-09-11T08:20:23.000Z</time>
      </trkpt>
      <trkpt lat="45.31532" lon="5.94165">
        <ele>312.6</ele>
        <time>2013-09-11T08:20:28.000Z</time>
      </trkpt>
      <trkpt lat="45.31548" lon="5.94142">
        <ele>318.4</ele>
        <time>2013-09-11T08:20:33.000Z</time>
      </trkpt>
      <trkpt lat="45.31578" lon="5.94118">
        <ele>312.7</ele>
        <time>2013-09-11T08:20:38.000Z</time>
      </trkpt>
      <trkpt lat="45.3161" lon="5.94077">
        <ele>299.8</ele>
        <time>2013-09-11T08:20:43.000Z</time>
      </trkpt>
      <trkpt lat="45.31636" lon="5.94069">
        <ele>290.3</ele>
        <time>2013-09-11T08:20:48.000Z</time>
      </trkpt>
      <trkpt lat="45.31654" lon="5.94087">
        <ele>293.7</ele>
        <time>2013-09-11T08:20:52.000Z</time>
      </trkpt>
      <trkpt lat="45.31678" lon="5.94119">
        <ele>292.5</ele>
        <time>2013-09-11T08:20:57.000Z</time>
      </trkpt>
      <trkpt lat="45.317" lon="5.94147">
        <ele>296</ele>
        <time>2013-09-11T08:21:02.000Z</time>
      </trkpt>
      <trkpt lat="45.31723" lon="5.94178">
        <ele>297.1</ele>
        <time>2013-09-11T08:21:07.000Z</time>
      </trkpt>
      <trkpt lat="45.31736" lon="5.94212">
        <ele>297.8</ele>
        <time>2013-09-11T08:21:13.000Z</time>
      </trkpt>
      <trkpt lat="45.31736" lon="5.94237">
        <ele>298</ele>
        <time>2013-09-11T08:21:17.000Z</time>
      </trkpt>
      <trkpt lat="45.31726" lon="5.9426">
        <ele>301.1</ele>
        <time>2013-09-11T08:21:23.000Z</time>
      </trkpt>
      <trkpt lat="45.31712" lon="5.94269">
        <ele>302.8</ele>
        <time>2013-09-11T08:21:28.000Z</time>
      </trkpt>
      <trkpt lat="45.317" lon="5.94287">
        <ele>301.3</ele>
        <time>2013-09-11T08:21:33.000Z</time>
      </trkpt>
      <trkpt lat="45.31682" lon="5.9432">
        <ele>302.5</ele>
        <time>2013-09-11T08:21:38.000Z</time>
      </trkpt>
      <trkpt lat="45.31672" lon="5.94335">
        <ele>302.6</ele>
        <time>2013-09-11T08:21:42.000Z</time>
      </trkpt>
      <trkpt lat="45.31665" lon="5.9437">
        <ele>301.7</ele>
        <time>2013-09-11T08:21:48.000Z</time>
      </trkpt>
      <trkpt lat="45.31659" lon="5.94382">
        <ele>299.9</ele>
        <time>2013-09-11T08:21:52.000Z</time>
      </trkpt>
      <trkpt lat="45.31659" lon="5.94387">
        <ele>296.9</ele>
        <time>2013-09-11T08:21:57.000Z</time>
      </trkpt>
      <trkpt lat="45.31652" lon="5.94388">
        <ele>299.8</ele>
        <time>2013-09-11T08:22:02.000Z</time>
      </trkpt>
      <trkpt lat="45.31652" lon="5.94388">
        <ele>300.6</ele>
        <time>2013-09-11T08:22:17.000Z</time>
      </trkpt>
      <trkpt lat="45.31642" lon="5.94387">
        <ele>302.4</ele>
        <time>2013-09-11T08:22:22.000Z</time>
      </trkpt>
      <trkpt lat="45.31632" lon="5.94389">
        <ele>298.8</ele>
        <time>2013-09-11T08:22:27.000Z</time>
      </trkpt>
      <trkpt lat="45.31636" lon="5.94397">
        <ele>296.2</ele>
        <time>2013-09-11T08:22:32.000Z</time>
      </trkpt>
      <trkpt lat="45.31637" lon="5.94405">
        <ele>295.7</ele>
        <time>2013-09-11T08:22:37.000Z</time>
      </trkpt>
      <trkpt lat="45.3164" lon="5.94406">
        <ele>294.4</ele>
        <time>2013-09-11T08:22:42.000Z</time>
      </trkpt>
      <trkpt lat="45.31656" lon="5.94416">
        <ele>298.8</ele>
        <time>2013-09-11T08:22:47.000Z</time>
      </trkpt>
      <trkpt lat="45.31673" lon="5.94398">
        <ele>295.9</ele>
        <time>2013-09-11T08:22:52.000Z</time>
      </trkpt>
      <trkpt lat="45.31686" lon="5.94377">
        <ele>296</ele>
        <time>2013-09-11T08:22:57.000Z</time>
      </trkpt>
      <trkpt lat="45.31704" lon="5.94355">
        <ele>296.8</ele>
        <time>2013-09-11T08:23:02.000Z</time>
      </trkpt>
      <trkpt lat="45.31721" lon="5.94327">
        <ele>297</ele>
        <time>2013-09-11T08:23:08.000Z</time>
      </trkpt>
      <trkpt lat="45.31732" lon="5.94307">
        <ele>297</ele>
        <time>2013-09-11T08:23:12.000Z</time>
      </trkpt>
      <trkpt lat="45.31752" lon="5.94275">
        <ele>298.5</ele>
        <time>2013-09-11T08:23:18.000Z</time>
      </trkpt>
      <trkpt lat="45.31764" lon="5.94258">
        <ele>297.4</ele>
        <time>2013-09-11T08:23:22.000Z</time>
      </trkpt>
      <trkpt lat="45.3178" lon="5.9423">
        <ele>297</ele>
        <time>2013-09-11T08:23:27.000Z</time>
      </trkpt>
      <trkpt lat="45.31799" lon="5.94198">
        <ele>297.8</ele>
        <time>2013-09-11T08:23:32.000Z</time>
      </trkpt>
      <trkpt lat="45.31815" lon="5.94173">
        <ele>298.9</ele>
        <time>2013-09-11T08:23:37.000Z</time>
      </trkpt>
      <trkpt lat="45.31836" lon="5.9414">
        <ele>301.9</ele>
        <time>2013-09-11T08:23:42.000Z</time>
      </trkpt>
      <trkpt lat="45.31861" lon="5.94103">
        <ele>302.7</ele>
        <time>2013-09-11T08:23:47.000Z</time>
      </trkpt>
      <trkpt lat="45.31889" lon="5.94063">
        <ele>303.6</ele>
        <time>2013-09-11T08:23:52.000Z</time>
      </trkpt>
      <trkpt lat="45.31918" lon="5.94017">
        <ele>302.1</ele>
        <time>2013-09-11T08:23:57.000Z</time>
      </trkpt>
      <trkpt lat="45.31946" lon="5.93972">
        <ele>302.1</ele>
        <time>2013-09-11T08:24:02.000Z</time>
      </trkpt>
      <trkpt lat="45.31971" lon="5.93932">
        <ele>300</ele>
        <time>2013-09-11T08:24:08.000Z</time>
      </trkpt>
      <trkpt lat="45.31988" lon="5.9391">
        <ele>299.9</ele>
        <time>2013-09-11T08:24:12.000Z</time>
      </trkpt>
      <trkpt lat="45.32008" lon="5.93906">
        <ele>299.4</ele>
        <time>2013-09-11T08:24:17.000Z</time>
      </trkpt>
      <trkpt lat="45.32024" lon="5.9393">
        <ele>298.3</ele>
        <time>2013-09-11T08:24:22.000Z</time>
      </trkpt>
      <trkpt lat="45.32047" lon="5.93954">
        <ele>298.7</ele>
        <time>2013-09-11T08:24:27.000Z</time>
      </trkpt>
      <trkpt lat="45.3207" lon="5.93981">
        <ele>298.6</ele>
        <time>2013-09-11T08:24:32.000Z</time>
      </trkpt>
      <trkpt lat="45.32091" lon="5.94002">
        <ele>298</ele>
        <time>2013-09-11T08:24:37.000Z</time>
      </trkpt>
      <trkpt lat="45.32111" lon="5.94028">
        <ele>298.5</ele>
        <time>2013-09-11T08:24:42.000Z</time>
      </trkpt>
      <trkpt lat="45.32137" lon="5.94056">
        <ele>297.8</ele>
        <time>2013-09-11T08:24:47.000Z</time>
      </trkpt>
      <trkpt lat="45.32156" lon="5.94081">
        <ele>298.4</ele>
        <time>2013-09-11T08:24:52.000Z</time>
      </trkpt>
      <trkpt lat="45.32176" lon="5.94104">
        <ele>299.7</ele>
        <time>2013-09-11T08:24:57.000Z</time>
      </trkpt>
      <trkpt lat="45.32189" lon="5.94115">
        <ele>299.1</ele>
        <time>2013-09-11T08:25:02.000Z</time>
      </trkpt>
      <trkpt lat="45.32196" lon="5.94107">
        <ele>302.3</ele>
        <time>2013-09-11T08:25:07.000Z</time>
      </trkpt>
      <trkpt lat="45.32205" lon="5.94095">
        <ele>305.5</ele>
        <time>2013-09-11T08:25:12.000Z</time>
      </trkpt>
      <trkpt lat="45.3221" lon="5.9409">
        <ele>306.3</ele>
        <time>2013-09-11T08:25:17.000Z</time>
      </trkpt>
      <trkpt lat="45.32238" lon="5.94076">
        <ele>301.9</ele>
        <time>2013-09-11T08:25:22.000Z</time>
      </trkpt>
      <trkpt lat="45.3224" lon="5.94054">
        <ele>291</ele>
        <time>2013-09-11T08:25:27.000Z</time>
      </trkpt>
      <trkpt lat="45.32246" lon="5.94053">
        <ele>291.1</ele>
        <time>2013-09-11T08:25:32.000Z</time>
      </trkpt>
      <trkpt lat="45.32258" lon="5.94073">
        <ele>290</ele>
        <time>2013-09-11T08:25:37.000Z</time>
      </trkpt>
      <trkpt lat="45.32275" lon="5.94106">
        <ele>287.5</ele>
        <time>2013-09-11T08:25:42.000Z</time>
      </trkpt>
      <trkpt lat="45.3229" lon="5.94126">
        <ele>287.2</ele>
        <time>2013-09-11T08:25:47.000Z</time>
      </trkpt>
      <trkpt lat="45.32297" lon="5.94133">
        <ele>286.2</ele>
        <time>2013-09-11T08:25:52.000Z</time>
      </trkpt>
      <trkpt lat="45.32309" lon="5.94139">
        <ele>288.6</ele>
        <time>2013-09-11T08:25:57.000Z</time>
      </trkpt>
      <trkpt lat="45.32304" lon="5.94126">
        <ele>292.9</ele>
        <time>2013-09-11T08:26:02.000Z</time>
      </trkpt>
      <trkpt lat="45.32282" lon="5.94104">
        <ele>297.5</ele>
        <time>2013-09-11T08:26:07.000Z</time>
      </trkpt>
      <trkpt lat="45.32265" lon="5.94081">
        <ele>294.1</ele>
        <time>2013-09-11T08:26:12.000Z</time>
      </trkpt>
      <trkpt lat="45.32252" lon="5.94061">
        <ele>293.4</ele>
        <time>2013-09-11T08:26:18.000Z</time>
      </trkpt>
      <trkpt lat="45.32252" lon="5.94045">
        <ele>295.1</ele>
        <time>2013-09-11T08:26:22.000Z</time>
      </trkpt>
      <trkpt lat="45.32261" lon="5.94">
        <ele>296.4</ele>
        <time>2013-09-11T08:26:28.000Z</time>
      </trkpt>
      <trkpt lat="45.32275" lon="5.93968">
        <ele>297.1</ele>
        <time>2013-09-11T08:26:33.000Z</time>
      </trkpt>
      <trkpt lat="45.32294" lon="5.93931">
        <ele>298.2</ele>
        <time>2013-09-11T08:26:38.000Z</time>
      </trkpt>
      <trkpt lat="45.32307" lon="5.93904">
        <ele>297.3</ele>
        <time>2013-09-11T08:26:42.000Z</time>
      </trkpt>
      <trkpt lat="45.32319" lon="5.9387">
        <ele>298.5</ele>
        <time>2013-09-11T08:26:47.000Z</time>
      </trkpt>
      <trkpt lat="45.32339" lon="5.93838">
        <ele>299</ele>
        <time>2013-09-11T08:26:52.000Z</time>
      </trkpt>
      <trkpt lat="45.32358" lon="5.93807">
        <ele>301.5</ele>
        <time>2013-09-11T08:26:57.000Z</time>
      </trkpt>
      <trkpt lat="45.32375" lon="5.93782">
        <ele>300.9</ele>
        <time>2013-09-11T08:27:02.000Z</time>
      </trkpt>
      <trkpt lat="45.32384" lon="5.93779">
        <ele>300</ele>
        <time>2013-09-11T08:27:07.000Z</time>
      </trkpt>
      <trkpt lat="45.324" lon="5.93799">
        <ele>300.8</ele>
        <time>2013-09-11T08:27:12.000Z</time>
      </trkpt>
      <trkpt lat="45.32422" lon="5.93828">
        <ele>300</ele>
        <time>2013-09-11T08:27:17.000Z</time>
      </trkpt>
      <trkpt lat="45.32443" lon="5.93859">
        <ele>300.2</ele>
        <time>2013-09-11T08:27:22.000Z</time>
      </trkpt>
      <trkpt lat="45.32467" lon="5.93882">
        <ele>298.9</ele>
        <time>2013-09-11T08:27:27.000Z</time>
      </trkpt>
      <trkpt lat="45.32493" lon="5.93902">
        <ele>298.1</ele>
        <time>2013-09-11T08:27:32.000Z</time>
      </trkpt>
      <trkpt lat="45.32517" lon="5.93923">
        <ele>294.8</ele>
        <time>2013-09-11T08:27:37.000Z</time>
      </trkpt>
      <trkpt lat="45.3251" lon="5.93966">
        <ele>292.4</ele>
        <time>2013-09-11T08:27:43.000Z</time>
      </trkpt>
      <trkpt lat="45.32496" lon="5.94005">
        <ele>292.2</ele>
        <time>2013-09-11T08:27:48.000Z</time>
      </trkpt>
      <trkpt lat="45.32485" lon="5.94037">
        <ele>292.1</ele>
        <time>2013-09-11T08:27:52.000Z</time>
      </trkpt>
      <trkpt lat="45.32477" lon="5.94072">
        <ele>292</ele>
        <time>2013-09-11T08:27:57.000Z</time>
      </trkpt>
      <trkpt lat="45.32493" lon="5.94106">
        <ele>291.6</ele>
        <time>2013-09-11T08:28:02.000Z</time>
      </trkpt>
      <trkpt lat="45.32523" lon="5.94134">
        <ele>290.8</ele>
        <time>2013-09-11T08:28:07.000Z</time>
      </trkpt>
      <trkpt lat="45.32544" lon="5.94159">
        <ele>290.9</ele>
        <time>2013-09-11T08:28:12.000Z</time>
      </trkpt>
      <trkpt lat="45.32568" lon="5.94188">
        <ele>288.5</ele>
        <time>2013-09-11T08:28:17.000Z</time>
      </trkpt>
      <trkpt lat="45.32585" lon="5.94234">
        <ele>285</ele>
        <time>2013-09-11T08:28:23.000Z</time>
      </trkpt>
      <trkpt lat="45.32593" lon="5.94269">
        <ele>285.8</ele>
        <time>2013-09-11T08:28:28.000Z</time>
      </trkpt>
      <trkpt lat="45.32591" lon="5.94286">
        <ele>288.2</ele>
        <time>2013-09-11T08:28:33.000Z</time>
      </trkpt>
      <trkpt lat="45.32594" lon="5.94317">
        <ele>289.8</ele>
        <time>2013-09-11T08:28:38.000Z</time>
      </trkpt>
      <trkpt lat="45.32604" lon="5.94337">
        <ele>288.2</ele>
        <time>2013-09-11T08:28:43.000Z</time>
      </trkpt>
      <trkpt lat="45.32618" lon="5.94351">
        <ele>290.2</ele>
        <time>2013-09-11T08:28:47.000Z</time>
      </trkpt>
      <trkpt lat="45.32631" lon="5.94378">
        <ele>285.8</ele>
        <time>2013-09-11T08:28:53.000Z</time>
      </trkpt>
      <trkpt lat="45.3265" lon="5.94403">
        <ele>292.1</ele>
        <time>2013-09-11T08:28:58.000Z</time>
      </trkpt>
      <trkpt lat="45.3266" lon="5.94439">
        <ele>299.9</ele>
        <time>2013-09-11T08:29:03.000Z</time>
      </trkpt>
      <trkpt lat="45.32654" lon="5.94484">
        <ele>299.4</ele>
        <time>2013-09-11T08:29:08.000Z</time>
      </trkpt>
      <trkpt lat="45.32648" lon="5.9453">
        <ele>305.1</ele>
        <time>2013-09-11T08:29:13.000Z</time>
      </trkpt>
      <trkpt lat="45.32648" lon="5.94574">
        <ele>303</ele>
        <time>2013-09-11T08:29:18.000Z</time>
      </trkpt>
      <trkpt lat="45.32645" lon="5.94592">
        <ele>303.4</ele>
        <time>2013-09-11T08:29:23.000Z</time>
      </trkpt>
      <trkpt lat="45.32647" lon="5.94612">
        <ele>302.4</ele>
        <time>2013-09-11T08:29:28.000Z</time>
      </trkpt>
      <trkpt lat="45.32658" lon="5.94631">
        <ele>303.1</ele>
        <time>2013-09-11T08:29:33.000Z</time>
      </trkpt>
      <trkpt lat="45.32672" lon="5.94656">
        <ele>312.2</ele>
        <time>2013-09-11T08:29:38.000Z</time>
      </trkpt>
      <trkpt lat="45.32677" lon="5.94689">
        <ele>316.6</ele>
        <time>2013-09-11T08:29:44.000Z</time>
      </trkpt>
      <trkpt lat="45.32671" lon="5.94719">
        <ele>320.2</ele>
        <time>2013-09-11T08:29:49.000Z</time>
      </trkpt>
      <trkpt lat="45.32674" lon="5.94737">
        <ele>322.4</ele>
        <time>2013-09-11T08:29:54.000Z</time>
      </trkpt>
      <trkpt lat="45.32685" lon="5.94844">
        <ele>297.2</ele>
        <time>2013-09-11T08:29:59.000Z</time>
      </trkpt>
      <trkpt lat="45.32691" lon="5.94882">
        <ele>290.8</ele>
        <time>2013-09-11T08:30:03.000Z</time>
      </trkpt>
      <trkpt lat="45.32698" lon="5.94919">
        <ele>282.3</ele>
        <time>2013-09-11T08:30:08.000Z</time>
      </trkpt>
      <trkpt lat="45.3271" lon="5.94942">
        <ele>276.2</ele>
        <time>2013-09-11T08:30:13.000Z</time>
      </trkpt>
      <trkpt lat="45.32716" lon="5.94967">
        <ele>277.3</ele>
        <time>2013-09-11T08:30:18.000Z</time>
      </trkpt>
      <trkpt lat="45.32747" lon="5.95015">
        <ele>292.7</ele>
        <time>2013-09-11T08:30:23.000Z</time>
      </trkpt>
      <trkpt lat="45.3277" lon="5.95034">
        <ele>302.2</ele>
        <time>2013-09-11T08:30:28.000Z</time>
      </trkpt>
      <trkpt lat="45.32785" lon="5.95033">
        <ele>308.3</ele>
        <time>2013-09-11T08:30:33.000Z</time>
      </trkpt>
      <trkpt lat="45.32795" lon="5.95036">
        <ele>312.6</ele>
        <time>2013-09-11T08:30:38.000Z</time>
      </trkpt>
      <trkpt lat="45.32809" lon="5.95028">
        <ele>317.6</ele>
        <time>2013-09-11T08:30:43.000Z</time>
      </trkpt>
      <trkpt lat="45.32819" lon="5.95024">
        <ele>319.1</ele>
        <time>2013-09-11T08:30:48.000Z</time>
      </trkpt>
      <trkpt lat="45.32822" lon="5.94997">
        <ele>329.2</ele>
        <time>2013-09-11T08:30:53.000Z</time>
      </trkpt>
      <trkpt lat="45.32855" lon="5.94959">
        <ele>312.3</ele>
        <time>2013-09-11T08:30:58.000Z</time>
      </trkpt>
      <trkpt lat="45.32881" lon="5.94933">
        <ele>310.9</ele>
        <time>2013-09-11T08:31:03.000Z</time>
      </trkpt>
      <trkpt lat="45.32894" lon="5.94913">
        <ele>310</ele>
        <time>2013-09-11T08:31:08.000Z</time>
      </trkpt>
      <trkpt lat="45.32907" lon="5.94874">
        <ele>305.6</ele>
        <time>2013-09-11T08:31:13.000Z</time>
      </trkpt>
      <trkpt lat="45.32919" lon="5.94854">
        <ele>304.4</ele>
        <time>2013-09-11T08:31:17.000Z</time>
      </trkpt>
      <trkpt lat="45.32935" lon="5.94822">
        <ele>303</ele>
        <time>2013-09-11T08:31:22.000Z</time>
      </trkpt>
      <trkpt lat="45.32952" lon="5.94798">
        <ele>302.5</ele>
        <time>2013-09-11T08:31:27.000Z</time>
      </trkpt>
      <trkpt lat="45.32971" lon="5.9477">
        <ele>302.5</ele>
        <time>2013-09-11T08:31:32.000Z</time>
      </trkpt>
      <trkpt lat="45.32989" lon="5.94743">
        <ele>300.1</ele>
        <time>2013-09-11T08:31:37.000Z</time>
      </trkpt>
      <trkpt lat="45.33013" lon="5.94696">
        <ele>301.2</ele>
        <time>2013-09-11T08:31:43.000Z</time>
      </trkpt>
      <trkpt lat="45.33026" lon="5.94675">
        <ele>299.7</ele>
        <time>2013-09-11T08:31:47.000Z</time>
      </trkpt>
      <trkpt lat="45.33044" lon="5.94643">
        <ele>295.9</ele>
        <time>2013-09-11T08:31:52.000Z</time>
      </trkpt>
      <trkpt lat="45.33063" lon="5.94616">
        <ele>289.7</ele>
        <time>2013-09-11T08:31:57.000Z</time>
      </trkpt>
      <trkpt lat="45.33083" lon="5.94587">
        <ele>289.4</ele>
        <time>2013-09-11T08:32:02.000Z</time>
      </trkpt>
      <trkpt lat="45.33102" lon="5.94555">
        <ele>289.5</ele>
        <time>2013-09-11T08:32:07.000Z</time>
      </trkpt>
      <trkpt lat="45.33119" lon="5.94532">
        <ele>292.3</ele>
        <time>2013-09-11T08:32:12.000Z</time>
      </trkpt>
      <trkpt lat="45.33131" lon="5.94524">
        <ele>293.2</ele>
        <time>2013-09-11T08:32:17.000Z</time>
      </trkpt>
      <trkpt lat="45.33139" lon="5.94537">
        <ele>292.5</ele>
        <time>2013-09-11T08:32:22.000Z</time>
      </trkpt>
      <trkpt lat="45.33153" lon="5.94568">
        <ele>291.8</ele>
        <time>2013-09-11T08:32:28.000Z</time>
      </trkpt>
      <trkpt lat="45.3316" lon="5.9459">
        <ele>291.2</ele>
        <time>2013-09-11T08:32:32.000Z</time>
      </trkpt>
      <trkpt lat="45.33177" lon="5.94637">
        <ele>290.3</ele>
        <time>2013-09-11T08:32:38.000Z</time>
      </trkpt>
      <trkpt lat="45.33193" lon="5.94672">
        <ele>290.5</ele>
        <time>2013-09-11T08:32:43.000Z</time>
      </trkpt>
      <trkpt lat="45.33203" lon="5.94711">
        <ele>288.1</ele>
        <time>2013-09-11T08:32:48.000Z</time>
      </trkpt>
      <trkpt lat="45.33212" lon="5.94742">
        <ele>287.5</ele>
        <time>2013-09-11T08:32:53.000Z</time>
      </trkpt>
      <trkpt lat="45.33228" lon="5.94766">
        <ele>288.4</ele>
        <time>2013-09-11T08:32:57.000Z</time>
      </trkpt>
      <trkpt lat="45.33249" lon="5.94787">
        <ele>288.4</ele>
        <time>2013-09-11T08:33:02.000Z</time>
      </trkpt>
      <trkpt lat="45.33268" lon="5.94811">
        <ele>288.4</ele>
        <time>2013-09-11T08:33:07.000Z</time>
      </trkpt>
      <trkpt lat="45.33288" lon="5.94833">
        <ele>287.3</ele>
        <time>2013-09-11T08:33:12.000Z</time>
      </trkpt>
      <trkpt lat="45.33314" lon="5.94858">
        <ele>288.2</ele>
        <time>2013-09-11T08:33:17.000Z</time>
      </trkpt>
      <trkpt lat="45.33337" lon="5.94883">
        <ele>287</ele>
        <time>2013-09-11T08:33:22.000Z</time>
      </trkpt>
      <trkpt lat="45.33359" lon="5.94905">
        <ele>287.2</ele>
        <time>2013-09-11T08:33:27.000Z</time>
      </trkpt>
      <trkpt lat="45.33382" lon="5.94932">
        <ele>287.5</ele>
        <time>2013-09-11T08:33:32.000Z</time>
      </trkpt>
      <trkpt lat="45.33404" lon="5.94954">
        <ele>288.2</ele>
        <time>2013-09-11T08:33:37.000Z</time>
      </trkpt>
      <trkpt lat="45.33423" lon="5.94979">
        <ele>287.2</ele>
        <time>2013-09-11T08:33:42.000Z</time>
      </trkpt>
      <trkpt lat="45.3344" lon="5.95007">
        <ele>284.2</ele>
        <time>2013-09-11T08:33:47.000Z</time>
      </trkpt>
      <trkpt lat="45.33452" lon="5.95046">
        <ele>284.6</ele>
        <time>2013-09-11T08:33:52.000Z</time>
      </trkpt>
      <trkpt lat="45.33465" lon="5.95076">
        <ele>284.8</ele>
        <time>2013-09-11T08:33:57.000Z</time>
      </trkpt>
      <trkpt lat="45.33481" lon="5.95102">
        <ele>283.8</ele>
        <time>2013-09-11T08:34:02.000Z</time>
      </trkpt>
      <trkpt lat="45.335" lon="5.95133">
        <ele>285.3</ele>
        <time>2013-09-11T08:34:07.000Z</time>
      </trkpt>
      <trkpt lat="45.33517" lon="5.95165">
        <ele>285.8</ele>
        <time>2013-09-11T08:34:12.000Z</time>
      </trkpt>
      <trkpt lat="45.33537" lon="5.95193">
        <ele>286.2</ele>
        <time>2013-09-11T08:34:17.000Z</time>
      </trkpt>
      <trkpt lat="45.33551" lon="5.95218">
        <ele>283.5</ele>
        <time>2013-09-11T08:34:22.000Z</time>
      </trkpt>
      <trkpt lat="45.33569" lon="5.95242">
        <ele>280.8</ele>
        <time>2013-09-11T08:34:27.000Z</time>
      </trkpt>
      <trkpt lat="45.3359" lon="5.95268">
        <ele>280.6</ele>
        <time>2013-09-11T08:34:32.000Z</time>
      </trkpt>
      <trkpt lat="45.33605" lon="5.95304">
        <ele>280.7</ele>
        <time>2013-09-11T08:34:37.000Z</time>
      </trkpt>
      <trkpt lat="45.33616" lon="5.95333">
        <ele>281.2</ele>
        <time>2013-09-11T08:34:42.000Z</time>
      </trkpt>
      <trkpt lat="45.33633" lon="5.9536">
        <ele>284.5</ele>
        <time>2013-09-11T08:34:47.000Z</time>
      </trkpt>
      <trkpt lat="45.33653" lon="5.95386">
        <ele>283.1</ele>
        <time>2013-09-11T08:34:52.000Z</time>
      </trkpt>
      <trkpt lat="45.33671" lon="5.95412">
        <ele>282.1</ele>
        <time>2013-09-11T08:34:57.000Z</time>
      </trkpt>
      <trkpt lat="45.33687" lon="5.95439">
        <ele>279.4</ele>
        <time>2013-09-11T08:35:02.000Z</time>
      </trkpt>
      <trkpt lat="45.33696" lon="5.9545">
        <ele>280.4</ele>
        <time>2013-09-11T08:35:08.000Z</time>
      </trkpt>
      <trkpt lat="45.33707" lon="5.95451">
        <ele>284.4</ele>
        <time>2013-09-11T08:35:12.000Z</time>
      </trkpt>
      <trkpt lat="45.3372" lon="5.9549">
        <ele>290.2</ele>
        <time>2013-09-11T08:35:18.000Z</time>
      </trkpt>
      <trkpt lat="45.3374" lon="5.95508">
        <ele>291.6</ele>
        <time>2013-09-11T08:35:22.000Z</time>
      </trkpt>
      <trkpt lat="45.33751" lon="5.95534">
        <ele>297.2</ele>
        <time>2013-09-11T08:35:28.000Z</time>
      </trkpt>
      <trkpt lat="45.33752" lon="5.95547">
        <ele>302.8</ele>
        <time>2013-09-11T08:35:33.000Z</time>
      </trkpt>
      <trkpt lat="45.33753" lon="5.9558">
        <ele>286.3</ele>
        <time>2013-09-11T08:35:38.000Z</time>
      </trkpt>
      <trkpt lat="45.33759" lon="5.95586">
        <ele>292.4</ele>
        <time>2013-09-11T08:35:43.000Z</time>
      </trkpt>
      <trkpt lat="45.3376" lon="5.95575">
        <ele>296.4</ele>
        <time>2013-09-11T08:35:48.000Z</time>
      </trkpt>
      <trkpt lat="45.3376" lon="5.95552">
        <ele>296.5</ele>
        <time>2013-09-11T08:35:52.000Z</time>
      </trkpt>
      <trkpt lat="45.33757" lon="5.95522">
        <ele>297.1</ele>
        <time>2013-09-11T08:35:57.000Z</time>
      </trkpt>
      <trkpt lat="45.33753" lon="5.95491">
        <ele>297</ele>
        <time>2013-09-11T08:36:02.000Z</time>
      </trkpt>
      <trkpt lat="45.33756" lon="5.95446">
        <ele>296</ele>
        <time>2013-09-11T08:36:07.000Z</time>
      </trkpt>
      <trkpt lat="45.33756" lon="5.95412">
        <ele>296.9</ele>
        <time>2013-09-11T08:36:12.000Z</time>
      </trkpt>
      <trkpt lat="45.3397" lon="5.94012">
        <ele>307.2</ele>
        <time>2013-09-11T08:40:47.000Z</time>
      </trkpt>
      <trkpt lat="45.33976" lon="5.94004">
        <ele>309.8</ele>
        <time>2013-09-11T08:40:51.000Z</time>
      </trkpt>
      <trkpt lat="45.33979" lon="5.93999">
        <ele>311.8</ele>
        <time>2013-09-11T08:40:55.000Z</time>
      </trkpt>
      <trkpt lat="45.3398" lon="5.93997">
        <ele>312.3</ele>
        <time>2013-09-11T08:40:58.000Z</time>
      </trkpt>
      <trkpt lat="45.33985" lon="5.93992">
        <ele>319.4</ele>
        <time>2013-09-11T08:41:02.000Z</time>
      </trkpt>
      <trkpt lat="45.33984" lon="5.93987">
        <ele>318.4</ele>
        <time>2013-09-11T08:41:07.000Z</time>
      </trkpt>
      <trkpt lat="45.3399" lon="5.93978">
        <ele>319.1</ele>
        <time>2013-09-11T08:41:13.000Z</time>
      </trkpt>
      <trkpt lat="45.33995" lon="5.93971">
        <ele>319.4</ele>
        <time>2013-09-11T08:41:18.000Z</time>
      </trkpt>
      <trkpt lat="45.33994" lon="5.93962">
        <ele>320.1</ele>
        <time>2013-09-11T08:41:23.000Z</time>
      </trkpt>
      <trkpt lat="45.33995" lon="5.93951">
        <ele>321.9</ele>
        <time>2013-09-11T08:41:28.000Z</time>
      </trkpt>
      <trkpt lat="45.34002" lon="5.93948">
        <ele>323.5</ele>
        <time>2013-09-11T08:41:33.000Z</time>
      </trkpt>
      <trkpt lat="45.34004" lon="5.93946">
        <ele>326.1</ele>
        <time>2013-09-11T08:41:48.000Z</time>
      </trkpt>
      <trkpt lat="45.34014" lon="5.93945">
        <ele>328.8</ele>
        <time>2013-09-11T08:41:52.000Z</time>
      </trkpt>
      <trkpt lat="45.34027" lon="5.93937">
        <ele>330.9</ele>
        <time>2013-09-11T08:41:57.000Z</time>
      </trkpt>
      <trkpt lat="45.34041" lon="5.93928">
        <ele>335</ele>
        <time>2013-09-11T08:42:03.000Z</time>
      </trkpt>
      <trkpt lat="45.34047" lon="5.93922">
        <ele>336.8</ele>
        <time>2013-09-11T08:42:07.000Z</time>
      </trkpt>
      <trkpt lat="45.34056" lon="5.93922">
        <ele>339.3</ele>
        <time>2013-09-11T08:42:12.000Z</time>
      </trkpt>
      <trkpt lat="45.34066" lon="5.93926">
        <ele>343</ele>
        <time>2013-09-11T08:42:18.000Z</time>
      </trkpt>
      <trkpt lat="45.3407" lon="5.93926">
        <ele>343.6</ele>
        <time>2013-09-11T08:42:22.000Z</time>
      </trkpt>
      <trkpt lat="45.34079" lon="5.93927">
        <ele>345.1</ele>
        <time>2013-09-11T08:42:28.000Z</time>
      </trkpt>
      <trkpt lat="45.34088" lon="5.93933">
        <ele>344.5</ele>
        <time>2013-09-11T08:42:33.000Z</time>
      </trkpt>
      <trkpt lat="45.34096" lon="5.93924">
        <ele>346.7</ele>
        <time>2013-09-11T08:42:38.000Z</time>
      </trkpt>
      <trkpt lat="45.341" lon="5.93922">
        <ele>352.3</ele>
        <time>2013-09-11T08:42:43.000Z</time>
      </trkpt>
      <trkpt lat="45.34103" lon="5.93914">
        <ele>352.8</ele>
        <time>2013-09-11T08:42:48.000Z</time>
      </trkpt>
      <trkpt lat="45.3411" lon="5.939">
        <ele>353.2</ele>
        <time>2013-09-11T08:42:53.000Z</time>
      </trkpt>
      <trkpt lat="45.34099" lon="5.93894">
        <ele>352.7</ele>
        <time>2013-09-11T08:42:58.000Z</time>
      </trkpt>
      <trkpt lat="45.34091" lon="5.9388">
        <ele>345.2</ele>
        <time>2013-09-11T08:43:03.000Z</time>
      </trkpt>
      <trkpt lat="45.34085" lon="5.93879">
        <ele>346.8</ele>
        <time>2013-09-11T08:43:07.000Z</time>
      </trkpt>
      <trkpt lat="45.34077" lon="5.9388">
        <ele>348.4</ele>
        <time>2013-09-11T08:43:12.000Z</time>
      </trkpt>
      <trkpt lat="45.34074" lon="5.93876">
        <ele>347.6</ele>
        <time>2013-09-11T08:43:17.000Z</time>
      </trkpt>
      <trkpt lat="45.34069" lon="5.93873">
        <ele>352.3</ele>
        <time>2013-09-11T08:43:22.000Z</time>
      </trkpt>
      <trkpt lat="45.34063" lon="5.93863">
        <ele>358.1</ele>
        <time>2013-09-11T08:43:28.000Z</time>
      </trkpt>
      <trkpt lat="45.34055" lon="5.93854">
        <ele>361.8</ele>
        <time>2013-09-11T08:43:32.000Z</time>
      </trkpt>
      <trkpt lat="45.34049" lon="5.93849">
        <ele>364.2</ele>
        <time>2013-09-11T08:43:37.000Z</time>
      </trkpt>
      <trkpt lat="45.3405" lon="5.93846">
        <ele>366.2</ele>
        <time>2013-09-11T08:43:52.000Z</time>
      </trkpt>
      <trkpt lat="45.3405" lon="5.93839">
        <ele>363.9</ele>
        <time>2013-09-11T08:43:59.000Z</time>
      </trkpt>
      <trkpt lat="45.34051" lon="5.93839">
        <ele>364.3</ele>
        <time>2013-09-11T08:44:13.000Z</time>
      </trkpt>
      <trkpt lat="45.34049" lon="5.93829">
        <ele>367.1</ele>
        <time>2013-09-11T08:44:18.000Z</time>
      </trkpt>
      <trkpt lat="45.34043" lon="5.93803">
        <ele>363.3</ele>
        <time>2013-09-11T08:44:23.000Z</time>
      </trkpt>
      <trkpt lat="45.34056" lon="5.93788">
        <ele>365.9</ele>
        <time>2013-09-11T08:44:28.000Z</time>
      </trkpt>
      <trkpt lat="45.34057" lon="5.93782">
        <ele>366.5</ele>
        <time>2013-09-11T08:44:32.000Z</time>
      </trkpt>
      <trkpt lat="45.34063" lon="5.93716">
        <ele>363.4</ele>
        <time>2013-09-11T08:44:38.000Z</time>
      </trkpt>
      <trkpt lat="45.34062" lon="5.93715">
        <ele>365.2</ele>
        <time>2013-09-11T08:44:42.000Z</time>
      </trkpt>
      <trkpt lat="45.34061" lon="5.93708">
        <ele>366.6</ele>
        <time>2013-09-11T08:44:47.000Z</time>
      </trkpt>
      <trkpt lat="45.34063" lon="5.93691">
        <ele>367.3</ele>
        <time>2013-09-11T08:44:52.000Z</time>
      </trkpt>
      <trkpt lat="45.34051" lon="5.93671">
        <ele>368.5</ele>
        <time>2013-09-11T08:44:58.000Z</time>
      </trkpt>
      <trkpt lat="45.34047" lon="5.93667">
        <ele>370.2</ele>
        <time>2013-09-11T08:45:03.000Z</time>
      </trkpt>
      <trkpt lat="45.34027" lon="5.93664">
        <ele>372.1</ele>
        <time>2013-09-11T08:45:08.000Z</time>
      </trkpt>
      <trkpt lat="45.34018" lon="5.93659">
        <ele>375.4</ele>
        <time>2013-09-11T08:45:13.000Z</time>
      </trkpt>
      <trkpt lat="45.34014" lon="5.93657">
        <ele>376.5</ele>
        <time>2013-09-11T08:45:18.000Z</time>
      </trkpt>
      <trkpt lat="45.33976" lon="5.9365">
        <ele>378.4</ele>
        <time>2013-09-11T08:45:23.000Z</time>
      </trkpt>
      <trkpt lat="45.33964" lon="5.93638">
        <ele>382.2</ele>
        <time>2013-09-11T08:45:29.000Z</time>
      </trkpt>
      <trkpt lat="45.3396" lon="5.93627">
        <ele>382.9</ele>
        <time>2013-09-11T08:45:34.000Z</time>
      </trkpt>
      <trkpt lat="45.33956" lon="5.93617">
        <ele>383.2</ele>
        <time>2013-09-11T08:45:38.000Z</time>
      </trkpt>
      <trkpt lat="45.33945" lon="5.93612">
        <ele>386.3</ele>
        <time>2013-09-11T08:45:43.000Z</time>
      </trkpt>
      <trkpt lat="45.33872" lon="5.93589">
        <ele>372.8</ele>
        <time>2013-09-11T08:45:48.000Z</time>
      </trkpt>
      <trkpt lat="45.33852" lon="5.93592">
        <ele>373.7</ele>
        <time>2013-09-11T08:45:53.000Z</time>
      </trkpt>
      <trkpt lat="45.33839" lon="5.93598">
        <ele>375.8</ele>
        <time>2013-09-11T08:45:58.000Z</time>
      </trkpt>
      <trkpt lat="45.33825" lon="5.93594">
        <ele>377.6</ele>
        <time>2013-09-11T08:46:03.000Z</time>
      </trkpt>
      <trkpt lat="45.33786" lon="5.93586">
        <ele>391.2</ele>
        <time>2013-09-11T08:46:09.000Z</time>
      </trkpt>
      <trkpt lat="45.33766" lon="5.93586">
        <ele>399.4</ele>
        <time>2013-09-11T08:46:13.000Z</time>
      </trkpt>
      <trkpt lat="45.33749" lon="5.9358">
        <ele>397.9</ele>
        <time>2013-09-11T08:46:18.000Z</time>
      </trkpt>
      <trkpt lat="45.33739" lon="5.93578">
        <ele>396.3</ele>
        <time>2013-09-11T08:46:23.000Z</time>
      </trkpt>
      <trkpt lat="45.33701" lon="5.93556">
        <ele>379.2</ele>
        <time>2013-09-11T08:46:28.000Z</time>
      </trkpt>
      <trkpt lat="45.33691" lon="5.93549">
        <ele>380.6</ele>
        <time>2013-09-11T08:46:33.000Z</time>
      </trkpt>
      <trkpt lat="45.33687" lon="5.9354">
        <ele>381.5</ele>
        <time>2013-09-11T08:46:37.000Z</time>
      </trkpt>
      <trkpt lat="45.33669" lon="5.93529">
        <ele>386.1</ele>
        <time>2013-09-11T08:46:43.000Z</time>
      </trkpt>
      <trkpt lat="45.33656" lon="5.93508">
        <ele>391.2</ele>
        <time>2013-09-11T08:46:48.000Z</time>
      </trkpt>
      <trkpt lat="45.33637" lon="5.93496">
        <ele>394.5</ele>
        <time>2013-09-11T08:46:53.000Z</time>
      </trkpt>
      <trkpt lat="45.33602" lon="5.93485">
        <ele>391.4</ele>
        <time>2013-09-11T08:46:58.000Z</time>
      </trkpt>
      <trkpt lat="45.33566" lon="5.93481">
        <ele>390.8</ele>
        <time>2013-09-11T08:47:03.000Z</time>
      </trkpt>
      <trkpt lat="45.33519" lon="5.93464">
        <ele>386.9</ele>
        <time>2013-09-11T08:47:08.000Z</time>
      </trkpt>
      <trkpt lat="45.33487" lon="5.93446">
        <ele>386.7</ele>
        <time>2013-09-11T08:47:13.000Z</time>
      </trkpt>
      <trkpt lat="45.33445" lon="5.93404">
        <ele>380.8</ele>
        <time>2013-09-11T08:47:18.000Z</time>
      </trkpt>
      <trkpt lat="45.33414" lon="5.93374">
        <ele>382.2</ele>
        <time>2013-09-11T08:47:23.000Z</time>
      </trkpt>
      <trkpt lat="45.33384" lon="5.93359">
        <ele>375.7</ele>
        <time>2013-09-11T08:47:28.000Z</time>
      </trkpt>
      <trkpt lat="45.33357" lon="5.93352">
        <ele>373.1</ele>
        <time>2013-09-11T08:47:33.000Z</time>
      </trkpt>
      <trkpt lat="45.33332" lon="5.93342">
        <ele>374.2</ele>
        <time>2013-09-11T08:47:37.000Z</time>
      </trkpt>
      <trkpt lat="45.33297" lon="5.93327">
        <ele>375.9</ele>
        <time>2013-09-11T08:47:43.000Z</time>
      </trkpt>
      <trkpt lat="45.33282" lon="5.93303">
        <ele>374.1</ele>
        <time>2013-09-11T08:47:48.000Z</time>
      </trkpt>
      <trkpt lat="45.33255" lon="5.93291">
        <ele>373.5</ele>
        <time>2013-09-11T08:47:52.000Z</time>
      </trkpt>
      <trkpt lat="45.33239" lon="5.93281">
        <ele>373</ele>
        <time>2013-09-11T08:47:57.000Z</time>
      </trkpt>
      <trkpt lat="45.33229" lon="5.9326">
        <ele>372.3</ele>
        <time>2013-09-11T08:48:02.000Z</time>
      </trkpt>
      <trkpt lat="45.33219" lon="5.93242">
        <ele>374.1</ele>
        <time>2013-09-11T08:48:07.000Z</time>
      </trkpt>
      <trkpt lat="45.33198" lon="5.93224">
        <ele>376.7</ele>
        <time>2013-09-11T08:48:13.000Z</time>
      </trkpt>
      <trkpt lat="45.33185" lon="5.93215">
        <ele>375</ele>
        <time>2013-09-11T08:48:17.000Z</time>
      </trkpt>
      <trkpt lat="45.33164" lon="5.93204">
        <ele>367.4</ele>
        <time>2013-09-11T08:48:22.000Z</time>
      </trkpt>
      <trkpt lat="45.33156" lon="5.93191">
        <ele>361.5</ele>
        <time>2013-09-11T08:48:27.000Z</time>
      </trkpt>
      <trkpt lat="45.33161" lon="5.93182">
        <ele>360.7</ele>
        <time>2013-09-11T08:48:32.000Z</time>
      </trkpt>
      <trkpt lat="45.33169" lon="5.93171">
        <ele>363.7</ele>
        <time>2013-09-11T08:48:37.000Z</time>
      </trkpt>
      <trkpt lat="45.33177" lon="5.93164">
        <ele>367.1</ele>
        <time>2013-09-11T08:48:42.000Z</time>
      </trkpt>
      <trkpt lat="45.33187" lon="5.93148">
        <ele>366.2</ele>
        <time>2013-09-11T08:48:47.000Z</time>
      </trkpt>
      <trkpt lat="45.33185" lon="5.93142">
        <ele>364.8</ele>
        <time>2013-09-11T08:48:52.000Z</time>
      </trkpt>
      <trkpt lat="45.33189" lon="5.93106">
        <ele>367.9</ele>
        <time>2013-09-11T08:48:57.000Z</time>
      </trkpt>
      <trkpt lat="45.33185" lon="5.93085">
        <ele>368</ele>
        <time>2013-09-11T08:49:03.000Z</time>
      </trkpt>
      <trkpt lat="45.33178" lon="5.93062">
        <ele>370.2</ele>
        <time>2013-09-11T08:49:08.000Z</time>
      </trkpt>
      <trkpt lat="45.33177" lon="5.93043">
        <ele>372.7</ele>
        <time>2013-09-11T08:49:13.000Z</time>
      </trkpt>
      <trkpt lat="45.33174" lon="5.93035">
        <ele>373.6</ele>
        <time>2013-09-11T08:49:17.000Z</time>
      </trkpt>
      <trkpt lat="45.33165" lon="5.93019">
        <ele>375.6</ele>
        <time>2013-09-11T08:49:23.000Z</time>
      </trkpt>
      <trkpt lat="45.33161" lon="5.93007">
        <ele>379.1</ele>
        <time>2013-09-11T08:49:28.000Z</time>
      </trkpt>
      <trkpt lat="45.33155" lon="5.92992">
        <ele>381.2</ele>
        <time>2013-09-11T08:49:33.000Z</time>
      </trkpt>
      <trkpt lat="45.33152" lon="5.92979">
        <ele>383.7</ele>
        <time>2013-09-11T08:49:38.000Z</time>
      </trkpt>
      <trkpt lat="45.33148" lon="5.92965">
        <ele>383.4</ele>
        <time>2013-09-11T08:49:43.000Z</time>
      </trkpt>
      <trkpt lat="45.33146" lon="5.92949">
        <ele>381.9</ele>
        <time>2013-09-11T08:49:47.000Z</time>
      </trkpt>
      <trkpt lat="45.33141" lon="5.92934">
        <ele>382.8</ele>
        <time>2013-09-11T08:49:52.000Z</time>
      </trkpt>
      <trkpt lat="45.33137" lon="5.92924">
        <ele>380.7</ele>
        <time>2013-09-11T08:49:57.000Z</time>
      </trkpt>
      <trkpt lat="45.33131" lon="5.92909">
        <ele>381.8</ele>
        <time>2013-09-11T08:50:03.000Z</time>
      </trkpt>
      <trkpt lat="45.3312" lon="5.929">
        <ele>386.1</ele>
        <time>2013-09-11T08:50:08.000Z</time>
      </trkpt>
      <trkpt lat="45.331" lon="5.92895">
        <ele>382.4</ele>
        <time>2013-09-11T08:50:12.000Z</time>
      </trkpt>
      <trkpt lat="45.33094" lon="5.92888">
        <ele>381.9</ele>
        <time>2013-09-11T08:50:18.000Z</time>
      </trkpt>
      <trkpt lat="45.33092" lon="5.92881">
        <ele>382.9</ele>
        <time>2013-09-11T08:50:22.000Z</time>
      </trkpt>
      <trkpt lat="45.33096" lon="5.92869">
        <ele>384.2</ele>
        <time>2013-09-11T08:50:28.000Z</time>
      </trkpt>
      <trkpt lat="45.33098" lon="5.92855">
        <ele>386.6</ele>
        <time>2013-09-11T08:50:33.000Z</time>
      </trkpt>
      <trkpt lat="45.33101" lon="5.92845">
        <ele>388.2</ele>
        <time>2013-09-11T08:50:38.000Z</time>
      </trkpt>
      <trkpt lat="45.33108" lon="5.92835">
        <ele>391.5</ele>
        <time>2013-09-11T08:50:43.000Z</time>
      </trkpt>
      <trkpt lat="45.3311" lon="5.92832">
        <ele>391.6</ele>
        <time>2013-09-11T08:50:47.000Z</time>
      </trkpt>
      <trkpt lat="45.33112" lon="5.92818">
        <ele>391.9</ele>
        <time>2013-09-11T08:50:53.000Z</time>
      </trkpt>
      <trkpt lat="45.33107" lon="5.92809">
        <ele>395.4</ele>
        <time>2013-09-11T08:50:58.000Z</time>
      </trkpt>
      <trkpt lat="45.33105" lon="5.92799">
        <ele>397.9</ele>
        <time>2013-09-11T08:51:03.000Z</time>
      </trkpt>
      <trkpt lat="45.33111" lon="5.9278">
        <ele>399.7</ele>
        <time>2013-09-11T08:51:08.000Z</time>
      </trkpt>
      <trkpt lat="45.33126" lon="5.92769">
        <ele>389.8</ele>
        <time>2013-09-11T08:51:13.000Z</time>
      </trkpt>
      <trkpt lat="45.33129" lon="5.92766">
        <ele>387.9</ele>
        <time>2013-09-11T08:51:18.000Z</time>
      </trkpt>
      <trkpt lat="45.33135" lon="5.92768">
        <ele>389.4</ele>
        <time>2013-09-11T08:51:23.000Z</time>
      </trkpt>
      <trkpt lat="45.33145" lon="5.92766">
        <ele>389.9</ele>
        <time>2013-09-11T08:51:29.000Z</time>
      </trkpt>
      <trkpt lat="45.33153" lon="5.92771">
        <ele>392.8</ele>
        <time>2013-09-11T08:51:34.000Z</time>
      </trkpt>
      <trkpt lat="45.33158" lon="5.92767">
        <ele>394</ele>
        <time>2013-09-11T08:51:38.000Z</time>
      </trkpt>
      <trkpt lat="45.33158" lon="5.92768">
        <ele>394</ele>
        <time>2013-09-11T08:51:48.000Z</time>
      </trkpt>
      <trkpt lat="45.33166" lon="5.92768">
        <ele>393.8</ele>
        <time>2013-09-11T08:51:54.000Z</time>
      </trkpt>
      <trkpt lat="45.33164" lon="5.92779">
        <ele>393.7</ele>
        <time>2013-09-11T08:51:59.000Z</time>
      </trkpt>
      <trkpt lat="45.3317" lon="5.92793">
        <ele>391.9</ele>
        <time>2013-09-11T08:52:04.000Z</time>
      </trkpt>
      <trkpt lat="45.33176" lon="5.92799">
        <ele>388.9</ele>
        <time>2013-09-11T08:52:08.000Z</time>
      </trkpt>
      <trkpt lat="45.33178" lon="5.92799">
        <ele>387.9</ele>
        <time>2013-09-11T08:52:13.000Z</time>
      </trkpt>
      <trkpt lat="45.3319" lon="5.92796">
        <ele>395.5</ele>
        <time>2013-09-11T08:52:18.000Z</time>
      </trkpt>
      <trkpt lat="45.33191" lon="5.92793">
        <ele>400.3</ele>
        <time>2013-09-11T08:52:23.000Z</time>
      </trkpt>
      <trkpt lat="45.3321" lon="5.92781">
        <ele>404</ele>
        <time>2013-09-11T08:52:28.000Z</time>
      </trkpt>
      <trkpt lat="45.33237" lon="5.92769">
        <ele>418.1</ele>
        <time>2013-09-11T08:52:33.000Z</time>
      </trkpt>
      <trkpt lat="45.33243" lon="5.92763">
        <ele>427.4</ele>
        <time>2013-09-11T08:52:38.000Z</time>
      </trkpt>
      <trkpt lat="45.33251" lon="5.9276">
        <ele>427.4</ele>
        <time>2013-09-11T08:52:42.000Z</time>
      </trkpt>
      <trkpt lat="45.33256" lon="5.92747">
        <ele>432.2</ele>
        <time>2013-09-11T08:52:48.000Z</time>
      </trkpt>
      <trkpt lat="45.33259" lon="5.92738">
        <ele>433.5</ele>
        <time>2013-09-11T08:52:53.000Z</time>
      </trkpt>
      <trkpt lat="45.33259" lon="5.92734">
        <ele>435.8</ele>
        <time>2013-09-11T08:53:02.000Z</time>
      </trkpt>
      <trkpt lat="45.3326" lon="5.92728">
        <ele>437.5</ele>
        <time>2013-09-11T08:53:08.000Z</time>
      </trkpt>
      <trkpt lat="45.33264" lon="5.92716">
        <ele>430</ele>
        <time>2013-09-11T08:53:13.000Z</time>
      </trkpt>
      <trkpt lat="45.33268" lon="5.92699">
        <ele>420.7</ele>
        <time>2013-09-11T08:53:18.000Z</time>
      </trkpt>
      <trkpt lat="45.33275" lon="5.92696">
        <ele>420.1</ele>
        <time>2013-09-11T08:53:23.000Z</time>
      </trkpt>
      <trkpt lat="45.33294" lon="5.9269">
        <ele>418.9</ele>
        <time>2013-09-11T08:53:30.000Z</time>
      </trkpt>
      <trkpt lat="45.333" lon="5.9269">
        <ele>420.1</ele>
        <time>2013-09-11T08:53:34.000Z</time>
      </trkpt>
      <trkpt lat="45.33321" lon="5.92664">
        <ele>418.7</ele>
        <time>2013-09-11T08:53:39.000Z</time>
      </trkpt>
      <trkpt lat="45.33319" lon="5.92644">
        <ele>424.1</ele>
        <time>2013-09-11T08:53:43.000Z</time>
      </trkpt>
      <trkpt lat="45.33312" lon="5.92634">
        <ele>429.3</ele>
        <time>2013-09-11T08:53:48.000Z</time>
      </trkpt>
      <trkpt lat="45.33301" lon="5.92624">
        <ele>430.2</ele>
        <time>2013-09-11T08:53:53.000Z</time>
      </trkpt>
      <trkpt lat="45.33298" lon="5.92607">
        <ele>435.6</ele>
        <time>2013-09-11T08:53:58.000Z</time>
      </trkpt>
      <trkpt lat="45.33295" lon="5.92591">
        <ele>438.9</ele>
        <time>2013-09-11T08:54:03.000Z</time>
      </trkpt>
      <trkpt lat="45.33299" lon="5.92572">
        <ele>445.3</ele>
        <time>2013-09-11T08:54:08.000Z</time>
      </trkpt>
      <trkpt lat="45.33299" lon="5.92559">
        <ele>445.3</ele>
        <time>2013-09-11T08:54:13.000Z</time>
      </trkpt>
      <trkpt lat="45.33295" lon="5.9254">
        <ele>449.4</ele>
        <time>2013-09-11T08:54:18.000Z</time>
      </trkpt>
      <trkpt lat="45.33293" lon="5.92527">
        <ele>450.1</ele>
        <time>2013-09-11T08:54:23.000Z</time>
      </trkpt>
      <trkpt lat="45.33293" lon="5.92519">
        <ele>450.6</ele>
        <time>2013-09-11T08:54:28.000Z</time>
      </trkpt>
      <trkpt lat="45.33285" lon="5.92504">
        <ele>450.7</ele>
        <time>2013-09-11T08:54:33.000Z</time>
      </trkpt>
      <trkpt lat="45.33285" lon="5.92482">
        <ele>450.7</ele>
        <time>2013-09-11T08:54:38.000Z</time>
      </trkpt>
      <trkpt lat="45.33292" lon="5.9246">
        <ele>457.1</ele>
        <time>2013-09-11T08:54:43.000Z</time>
      </trkpt>
      <trkpt lat="45.33292" lon="5.92445">
        <ele>459.8</ele>
        <time>2013-09-11T08:54:48.000Z</time>
      </trkpt>
      <trkpt lat="45.33292" lon="5.92434">
        <ele>459.7</ele>
        <time>2013-09-11T08:54:53.000Z</time>
      </trkpt>
      <trkpt lat="45.33298" lon="5.92415">
        <ele>458.3</ele>
        <time>2013-09-11T08:54:58.000Z</time>
      </trkpt>
      <trkpt lat="45.33301" lon="5.92397">
        <ele>455.4</ele>
        <time>2013-09-11T08:55:03.000Z</time>
      </trkpt>
      <trkpt lat="45.33302" lon="5.92395">
        <ele>456.3</ele>
        <time>2013-09-11T08:55:08.000Z</time>
      </trkpt>
      <trkpt lat="45.33305" lon="5.92392">
        <ele>454.8</ele>
        <time>2013-09-11T08:55:13.000Z</time>
      </trkpt>
      <trkpt lat="45.33304" lon="5.92387">
        <ele>452.9</ele>
        <time>2013-09-11T08:55:58.000Z</time>
      </trkpt>
      <trkpt lat="45.33286" lon="5.92312">
        <ele>463.4</ele>
        <time>2013-09-11T08:56:05.000Z</time>
      </trkpt>
      <trkpt lat="45.3329" lon="5.92279">
        <ele>467.2</ele>
        <time>2013-09-11T08:56:09.000Z</time>
      </trkpt>
      <trkpt lat="45.33268" lon="5.9225">
        <ele>467.5</ele>
        <time>2013-09-11T08:56:14.000Z</time>
      </trkpt>
      <trkpt lat="45.33261" lon="5.92228">
        <ele>469.7</ele>
        <time>2013-09-11T08:56:19.000Z</time>
      </trkpt>
      <trkpt lat="45.33261" lon="5.922">
        <ele>468.2</ele>
        <time>2013-09-11T08:56:25.000Z</time>
      </trkpt>
      <trkpt lat="45.33254" lon="5.92183">
        <ele>469.3</ele>
        <time>2013-09-11T08:56:35.000Z</time>
      </trkpt>
      <trkpt lat="45.33255" lon="5.92187">
        <ele>470.8</ele>
        <time>2013-09-11T08:58:30.000Z</time>
      </trkpt>
      <trkpt lat="45.33256" lon="5.92193">
        <ele>471.9</ele>
        <time>2013-09-11T08:58:35.000Z</time>
      </trkpt>
      <trkpt lat="45.33259" lon="5.922">
        <ele>472.9</ele>
        <time>2013-09-11T08:58:40.000Z</time>
      </trkpt>
      <trkpt lat="45.33256" lon="5.92201">
        <ele>470.5</ele>
        <time>2013-09-11T08:58:50.000Z</time>
      </trkpt>
      <trkpt lat="45.33248" lon="5.92195">
        <ele>469.1</ele>
        <time>2013-09-11T08:58:55.000Z</time>
      </trkpt>
      <trkpt lat="45.33245" lon="5.92194">
        <ele>466.4</ele>
        <time>2013-09-11T08:59:00.000Z</time>
      </trkpt>
      <trkpt lat="45.33247" lon="5.92188">
        <ele>463.4</ele>
        <time>2013-09-11T08:59:05.000Z</time>
      </trkpt>
      <trkpt lat="45.33248" lon="5.92183">
        <ele>460.7</ele>
        <time>2013-09-11T08:59:10.000Z</time>
      </trkpt>
      <trkpt lat="45.33249" lon="5.92179">
        <ele>457.7</ele>
        <time>2013-09-11T08:59:15.000Z</time>
      </trkpt>
      <trkpt lat="45.33252" lon="5.92169">
        <ele>454</ele>
        <time>2013-09-11T08:59:21.000Z</time>
      </trkpt>
      <trkpt lat="45.33228" lon="5.92155">
        <ele>447.7</ele>
        <time>2013-09-11T08:59:26.000Z</time>
      </trkpt>
      <trkpt lat="45.3322" lon="5.92148">
        <ele>445.4</ele>
        <time>2013-09-11T08:59:30.000Z</time>
      </trkpt>
      <trkpt lat="45.33223" lon="5.9216">
        <ele>445.3</ele>
        <time>2013-09-11T08:59:36.000Z</time>
      </trkpt>
      <trkpt lat="45.33226" lon="5.92178">
        <ele>445.7</ele>
        <time>2013-09-11T08:59:41.000Z</time>
      </trkpt>
      <trkpt lat="45.33226" lon="5.92201">
        <ele>446.3</ele>
        <time>2013-09-11T08:59:45.000Z</time>
      </trkpt>
      <trkpt lat="45.33233" lon="5.92207">
        <ele>449.8</ele>
        <time>2013-09-11T08:59:51.000Z</time>
      </trkpt>
      <trkpt lat="45.33237" lon="5.92253">
        <ele>450.6</ele>
        <time>2013-09-11T09:00:02.000Z</time>
      </trkpt>
      <trkpt lat="45.33218" lon="5.92281">
        <ele>453.7</ele>
        <time>2013-09-11T09:00:06.000Z</time>
      </trkpt>
      <trkpt lat="45.33207" lon="5.92316">
        <ele>454.9</ele>
        <time>2013-09-11T09:00:11.000Z</time>
      </trkpt>
      <trkpt lat="45.33196" lon="5.92368">
        <ele>440.2</ele>
        <time>2013-09-11T09:00:17.000Z</time>
      </trkpt>
      <trkpt lat="45.33191" lon="5.92395">
        <ele>432</ele>
        <time>2013-09-11T09:00:22.000Z</time>
      </trkpt>
      <trkpt lat="45.33186" lon="5.92398">
        <ele>431.3</ele>
        <time>2013-09-11T09:00:26.000Z</time>
      </trkpt>
      <trkpt lat="45.33182" lon="5.92413">
        <ele>431.7</ele>
        <time>2013-09-11T09:00:31.000Z</time>
      </trkpt>
      <trkpt lat="45.33173" lon="5.92434">
        <ele>442.2</ele>
        <time>2013-09-11T09:00:36.000Z</time>
      </trkpt>
      <trkpt lat="45.33164" lon="5.92482">
        <ele>444.5</ele>
        <time>2013-09-11T09:00:43.000Z</time>
      </trkpt>
      <trkpt lat="45.33159" lon="5.92531">
        <ele>434.9</ele>
        <time>2013-09-11T09:00:49.000Z</time>
      </trkpt>
      <trkpt lat="45.33152" lon="5.92546">
        <ele>435</ele>
        <time>2013-09-11T09:00:54.000Z</time>
      </trkpt>
      <trkpt lat="45.33142" lon="5.92572">
        <ele>428</ele>
        <time>2013-09-11T09:01:00.000Z</time>
      </trkpt>
      <trkpt lat="45.33136" lon="5.92589">
        <ele>427.5</ele>
        <time>2013-09-11T09:01:05.000Z</time>
      </trkpt>
      <trkpt lat="45.3313" lon="5.926">
        <ele>424.4</ele>
        <time>2013-09-11T09:01:09.000Z</time>
      </trkpt>
      <trkpt lat="45.33113" lon="5.92612">
        <ele>421.4</ele>
        <time>2013-09-11T09:01:14.000Z</time>
      </trkpt>
      <trkpt lat="45.33092" lon="5.9263">
        <ele>419.4</ele>
        <time>2013-09-11T09:01:19.000Z</time>
      </trkpt>
      <trkpt lat="45.33076" lon="5.92637">
        <ele>423.4</ele>
        <time>2013-09-11T09:01:24.000Z</time>
      </trkpt>
      <trkpt lat="45.33053" lon="5.9268">
        <ele>422.1</ele>
        <time>2013-09-11T09:01:30.000Z</time>
      </trkpt>
      <trkpt lat="45.33039" lon="5.92703">
        <ele>419.5</ele>
        <time>2013-09-11T09:01:34.000Z</time>
      </trkpt>
      <trkpt lat="45.33026" lon="5.92754">
        <ele>407.2</ele>
        <time>2013-09-11T09:01:40.000Z</time>
      </trkpt>
      <trkpt lat="45.33002" lon="5.9277">
        <ele>409.3</ele>
        <time>2013-09-11T09:01:44.000Z</time>
      </trkpt>
      <trkpt lat="45.32988" lon="5.92799">
        <ele>405.9</ele>
        <time>2013-09-11T09:01:49.000Z</time>
      </trkpt>
      <trkpt lat="45.32983" lon="5.92809">
        <ele>407.4</ele>
        <time>2013-09-11T09:01:53.000Z</time>
      </trkpt>
      <trkpt lat="45.32976" lon="5.92841">
        <ele>401</ele>
        <time>2013-09-11T09:01:58.000Z</time>
      </trkpt>
      <trkpt lat="45.32964" lon="5.92852">
        <ele>402.9</ele>
        <time>2013-09-11T09:02:03.000Z</time>
      </trkpt>
      <trkpt lat="45.32954" lon="5.92886">
        <ele>401.6</ele>
        <time>2013-09-11T09:02:09.000Z</time>
      </trkpt>
      <trkpt lat="45.3295" lon="5.92905">
        <ele>395.9</ele>
        <time>2013-09-11T09:02:13.000Z</time>
      </trkpt>
      <trkpt lat="45.32944" lon="5.92917">
        <ele>399.2</ele>
        <time>2013-09-11T09:02:18.000Z</time>
      </trkpt>
      <trkpt lat="45.32952" lon="5.92968">
        <ele>391.5</ele>
        <time>2013-09-11T09:02:23.000Z</time>
      </trkpt>
      <trkpt lat="45.32944" lon="5.93008">
        <ele>386.1</ele>
        <time>2013-09-11T09:02:28.000Z</time>
      </trkpt>
      <trkpt lat="45.32923" lon="5.93023">
        <ele>385.3</ele>
        <time>2013-09-11T09:02:34.000Z</time>
      </trkpt>
      <trkpt lat="45.32899" lon="5.93029">
        <ele>384.8</ele>
        <time>2013-09-11T09:02:38.000Z</time>
      </trkpt>
      <trkpt lat="45.32879" lon="5.93064">
        <ele>381.8</ele>
        <time>2013-09-11T09:02:44.000Z</time>
      </trkpt>
      <trkpt lat="45.32863" lon="5.9307">
        <ele>383</ele>
        <time>2013-09-11T09:02:49.000Z</time>
      </trkpt>
      <trkpt lat="45.3284" lon="5.93101">
        <ele>379.7</ele>
        <time>2013-09-11T09:02:54.000Z</time>
      </trkpt>
      <trkpt lat="45.32788" lon="5.93127">
        <ele>365.1</ele>
        <time>2013-09-11T09:02:59.000Z</time>
      </trkpt>
      <trkpt lat="45.32771" lon="5.93143">
        <ele>361.9</ele>
        <time>2013-09-11T09:03:03.000Z</time>
      </trkpt>
      <trkpt lat="45.32751" lon="5.9315">
        <ele>361.7</ele>
        <time>2013-09-11T09:03:08.000Z</time>
      </trkpt>
      <trkpt lat="45.32733" lon="5.93181">
        <ele>355.6</ele>
        <time>2013-09-11T09:03:13.000Z</time>
      </trkpt>
      <trkpt lat="45.32711" lon="5.93219">
        <ele>351.9</ele>
        <time>2013-09-11T09:03:18.000Z</time>
      </trkpt>
      <trkpt lat="45.32687" lon="5.93235">
        <ele>351.8</ele>
        <time>2013-09-11T09:03:23.000Z</time>
      </trkpt>
      <trkpt lat="45.32684" lon="5.93264">
        <ele>355.7</ele>
        <time>2013-09-11T09:03:28.000Z</time>
      </trkpt>
      <trkpt lat="45.32663" lon="5.93293">
        <ele>360.2</ele>
        <time>2013-09-11T09:03:33.000Z</time>
      </trkpt>
      <trkpt lat="45.32647" lon="5.93315">
        <ele>360.3</ele>
        <time>2013-09-11T09:03:39.000Z</time>
      </trkpt>
      <trkpt lat="45.32638" lon="5.93363">
        <ele>337.9</ele>
        <time>2013-09-11T09:03:43.000Z</time>
      </trkpt>
      <trkpt lat="45.32631" lon="5.93366">
        <ele>335.2</ele>
        <time>2013-09-11T09:03:48.000Z</time>
      </trkpt>
      <trkpt lat="45.32626" lon="5.93361">
        <ele>337.8</ele>
        <time>2013-09-11T09:03:53.000Z</time>
      </trkpt>
      <trkpt lat="45.32618" lon="5.93353">
        <ele>338.7</ele>
        <time>2013-09-11T09:03:58.000Z</time>
      </trkpt>
      <trkpt lat="45.32622" lon="5.93313">
        <ele>339.9</ele>
        <time>2013-09-11T09:04:03.000Z</time>
      </trkpt>
      <trkpt lat="45.32589" lon="5.93298">
        <ele>330.4</ele>
        <time>2013-09-11T09:04:07.000Z</time>
      </trkpt>
      <trkpt lat="45.32585" lon="5.93297">
        <ele>325.9</ele>
        <time>2013-09-11T09:04:12.000Z</time>
      </trkpt>
      <trkpt lat="45.32584" lon="5.93296">
        <ele>323.9</ele>
        <time>2013-09-11T09:04:18.000Z</time>
      </trkpt>
      <trkpt lat="45.32581" lon="5.93295">
        <ele>317.3</ele>
        <time>2013-09-11T09:04:58.000Z</time>
      </trkpt>
      <trkpt lat="45.32576" lon="5.93247">
        <ele>318.4</ele>
        <time>2013-09-11T09:05:03.000Z</time>
      </trkpt>
      <trkpt lat="45.32535" lon="5.93197">
        <ele>321.4</ele>
        <time>2013-09-11T09:05:09.000Z</time>
      </trkpt>
      <trkpt lat="45.32512" lon="5.93184">
        <ele>322.6</ele>
        <time>2013-09-11T09:05:13.000Z</time>
      </trkpt>
      <trkpt lat="45.32475" lon="5.93159">
        <ele>324.4</ele>
        <time>2013-09-11T09:05:18.000Z</time>
      </trkpt>
      <trkpt lat="45.3244" lon="5.93135">
        <ele>326.3</ele>
        <time>2013-09-11T09:05:23.000Z</time>
      </trkpt>
      <trkpt lat="45.32405" lon="5.93103">
        <ele>327.5</ele>
        <time>2013-09-11T09:05:28.000Z</time>
      </trkpt>
      <trkpt lat="45.32367" lon="5.93076">
        <ele>327.2</ele>
        <time>2013-09-11T09:05:33.000Z</time>
      </trkpt>
      <trkpt lat="45.32338" lon="5.93051">
        <ele>327.7</ele>
        <time>2013-09-11T09:05:37.000Z</time>
      </trkpt>
      <trkpt lat="45.32298" lon="5.93023">
        <ele>326.6</ele>
        <time>2013-09-11T09:05:42.000Z</time>
      </trkpt>
      <trkpt lat="45.32265" lon="5.92996">
        <ele>330</ele>
        <time>2013-09-11T09:05:47.000Z</time>
      </trkpt>
      <trkpt lat="45.32231" lon="5.92971">
        <ele>329.8</ele>
        <time>2013-09-11T09:05:52.000Z</time>
      </trkpt>
      <trkpt lat="45.32203" lon="5.92943">
        <ele>328.8</ele>
        <time>2013-09-11T09:05:57.000Z</time>
      </trkpt>
      <trkpt lat="45.32164" lon="5.92909">
        <ele>325.8</ele>
        <time>2013-09-11T09:06:03.000Z</time>
      </trkpt>
      <trkpt lat="45.32139" lon="5.92892">
        <ele>324.6</ele>
        <time>2013-09-11T09:06:07.000Z</time>
      </trkpt>
      <trkpt lat="45.32113" lon="5.92864">
        <ele>321.9</ele>
        <time>2013-09-11T09:06:12.000Z</time>
      </trkpt>
      <trkpt lat="45.3209" lon="5.92841">
        <ele>320.1</ele>
        <time>2013-09-11T09:06:17.000Z</time>
      </trkpt>
      <trkpt lat="45.32074" lon="5.92813">
        <ele>316</ele>
        <time>2013-09-11T09:06:22.000Z</time>
      </trkpt>
      <trkpt lat="45.32056" lon="5.92783">
        <ele>316.2</ele>
        <time>2013-09-11T09:06:28.000Z</time>
      </trkpt>
      <trkpt lat="45.32039" lon="5.92763">
        <ele>317.2</ele>
        <time>2013-09-11T09:06:33.000Z</time>
      </trkpt>
      <trkpt lat="45.32021" lon="5.92736">
        <ele>317</ele>
        <time>2013-09-11T09:06:38.000Z</time>
      </trkpt>
      <trkpt lat="45.3201" lon="5.927">
        <ele>315.4</ele>
        <time>2013-09-11T09:06:43.000Z</time>
      </trkpt>
      <trkpt lat="45.31998" lon="5.9268">
        <ele>316.1</ele>
        <time>2013-09-11T09:06:48.000Z</time>
      </trkpt>
      <trkpt lat="45.31989" lon="5.92663">
        <ele>316.3</ele>
        <time>2013-09-11T09:06:53.000Z</time>
      </trkpt>
      <trkpt lat="45.31978" lon="5.92641">
        <ele>316.3</ele>
        <time>2013-09-11T09:06:58.000Z</time>
      </trkpt>
      <trkpt lat="45.3197" lon="5.9263">
        <ele>316.6</ele>
        <time>2013-09-11T09:07:03.000Z</time>
      </trkpt>
      <trkpt lat="45.31956" lon="5.92609">
        <ele>316.6</ele>
        <time>2013-09-11T09:07:08.000Z</time>
      </trkpt>
      <trkpt lat="45.31963" lon="5.92548">
        <ele>319.8</ele>
        <time>2013-09-11T09:07:15.000Z</time>
      </trkpt>
      <trkpt lat="45.31951" lon="5.92526">
        <ele>313.6</ele>
        <time>2013-09-11T09:07:18.000Z</time>
      </trkpt>
      <trkpt lat="45.31945" lon="5.92498">
        <ele>312</ele>
        <time>2013-09-11T09:07:23.000Z</time>
      </trkpt>
      <trkpt lat="45.31943" lon="5.92478">
        <ele>313.7</ele>
        <time>2013-09-11T09:07:28.000Z</time>
      </trkpt>
      <trkpt lat="45.31933" lon="5.92457">
        <ele>307.5</ele>
        <time>2013-09-11T09:07:32.000Z</time>
      </trkpt>
      <trkpt lat="45.31926" lon="5.92421">
        <ele>307.9</ele>
        <time>2013-09-11T09:07:38.000Z</time>
      </trkpt>
      <trkpt lat="45.31916" lon="5.924">
        <ele>311.3</ele>
        <time>2013-09-11T09:07:43.000Z</time>
      </trkpt>
      <trkpt lat="45.31906" lon="5.92382">
        <ele>311.3</ele>
        <time>2013-09-11T09:07:47.000Z</time>
      </trkpt>
      <trkpt lat="45.31896" lon="5.92357">
        <ele>314.8</ele>
        <time>2013-09-11T09:07:53.000Z</time>
      </trkpt>
      <trkpt lat="45.31888" lon="5.92337">
        <ele>322.5</ele>
        <time>2013-09-11T09:07:58.000Z</time>
      </trkpt>
      <trkpt lat="45.3188" lon="5.92314">
        <ele>323.5</ele>
        <time>2013-09-11T09:08:03.000Z</time>
      </trkpt>
      <trkpt lat="45.3187" lon="5.92287">
        <ele>323.5</ele>
        <time>2013-09-11T09:08:08.000Z</time>
      </trkpt>
      <trkpt lat="45.31863" lon="5.92264">
        <ele>323.5</ele>
        <time>2013-09-11T09:08:13.000Z</time>
      </trkpt>
      <trkpt lat="45.31846" lon="5.92248">
        <ele>320.8</ele>
        <time>2013-09-11T09:08:18.000Z</time>
      </trkpt>
      <trkpt lat="45.31828" lon="5.92231">
        <ele>322</ele>
        <time>2013-09-11T09:08:23.000Z</time>
      </trkpt>
      <trkpt lat="45.31817" lon="5.92206">
        <ele>321.2</ele>
        <time>2013-09-11T09:08:28.000Z</time>
      </trkpt>
      <trkpt lat="45.31807" lon="5.92184">
        <ele>319.1</ele>
        <time>2013-09-11T09:08:33.000Z</time>
      </trkpt>
      <trkpt lat="45.31801" lon="5.92166">
        <ele>320.7</ele>
        <time>2013-09-11T09:08:38.000Z</time>
      </trkpt>
      <trkpt lat="45.31797" lon="5.92147">
        <ele>321.4</ele>
        <time>2013-09-11T09:08:42.000Z</time>
      </trkpt>
      <trkpt lat="45.31793" lon="5.92117">
        <ele>320.7</ele>
        <time>2013-09-11T09:08:48.000Z</time>
      </trkpt>
      <trkpt lat="45.31794" lon="5.92097">
        <ele>319.8</ele>
        <time>2013-09-11T09:08:53.000Z</time>
      </trkpt>
      <trkpt lat="45.31792" lon="5.92072">
        <ele>322.1</ele>
        <time>2013-09-11T09:08:58.000Z</time>
      </trkpt>
      <trkpt lat="45.31783" lon="5.9205">
        <ele>323.6</ele>
        <time>2013-09-11T09:09:03.000Z</time>
      </trkpt>
      <trkpt lat="45.31772" lon="5.92017">
        <ele>322.6</ele>
        <time>2013-09-11T09:09:09.000Z</time>
      </trkpt>
      <trkpt lat="45.31772" lon="5.91992">
        <ele>323.8</ele>
        <time>2013-09-11T09:09:14.000Z</time>
      </trkpt>
      <trkpt lat="45.31765" lon="5.91975">
        <ele>325</ele>
        <time>2013-09-11T09:09:18.000Z</time>
      </trkpt>
      <trkpt lat="45.31757" lon="5.91954">
        <ele>325.9</ele>
        <time>2013-09-11T09:09:23.000Z</time>
      </trkpt>
      <trkpt lat="45.31749" lon="5.91933">
        <ele>327.2</ele>
        <time>2013-09-11T09:09:28.000Z</time>
      </trkpt>
      <trkpt lat="45.31741" lon="5.91917">
        <ele>326.2</ele>
        <time>2013-09-11T09:09:33.000Z</time>
      </trkpt>
      <trkpt lat="45.31729" lon="5.9189">
        <ele>328.6</ele>
        <time>2013-09-11T09:09:40.000Z</time>
      </trkpt>
      <trkpt lat="45.3173" lon="5.91876">
        <ele>333.8</ele>
        <time>2013-09-11T09:09:44.000Z</time>
      </trkpt>
      <trkpt lat="45.31721" lon="5.91862">
        <ele>334.9</ele>
        <time>2013-09-11T09:09:48.000Z</time>
      </trkpt>
      <trkpt lat="45.31716" lon="5.91853">
        <ele>334.5</ele>
        <time>2013-09-11T09:09:53.000Z</time>
      </trkpt>
      <trkpt lat="45.31716" lon="5.91848">
        <ele>335.3</ele>
        <time>2013-09-11T09:09:58.000Z</time>
      </trkpt>
      <trkpt lat="45.3169" lon="5.91854">
        <ele>331.5</ele>
        <time>2013-09-11T09:10:03.000Z</time>
      </trkpt>
      <trkpt lat="45.31673" lon="5.91865">
        <ele>333.5</ele>
        <time>2013-09-11T09:10:08.000Z</time>
      </trkpt>
      <trkpt lat="45.31656" lon="5.91876">
        <ele>333.6</ele>
        <time>2013-09-11T09:10:13.000Z</time>
      </trkpt>
      <trkpt lat="45.31655" lon="5.91883">
        <ele>336.5</ele>
        <time>2013-09-11T09:10:18.000Z</time>
      </trkpt>
      <trkpt lat="45.31647" lon="5.91887">
        <ele>339.4</ele>
        <time>2013-09-11T09:10:23.000Z</time>
      </trkpt>
      <trkpt lat="45.31635" lon="5.91896">
        <ele>330.3</ele>
        <time>2013-09-11T09:10:28.000Z</time>
      </trkpt>
      <trkpt lat="45.31627" lon="5.91883">
        <ele>331.7</ele>
        <time>2013-09-11T09:10:33.000Z</time>
      </trkpt>
      <trkpt lat="45.31619" lon="5.91874">
        <ele>332.6</ele>
        <time>2013-09-11T09:10:38.000Z</time>
      </trkpt>
      <trkpt lat="45.31618" lon="5.91861">
        <ele>336.6</ele>
        <time>2013-09-11T09:10:42.000Z</time>
      </trkpt>
      <trkpt lat="45.31615" lon="5.91854">
        <ele>337.3</ele>
        <time>2013-09-11T09:10:47.000Z</time>
      </trkpt>
      <trkpt lat="45.31612" lon="5.9185">
        <ele>335.8</ele>
        <time>2013-09-11T09:10:52.000Z</time>
      </trkpt>
      <trkpt lat="45.31612" lon="5.91843">
        <ele>335</ele>
        <time>2013-09-11T09:10:58.000Z</time>
      </trkpt>
      <trkpt lat="45.31614" lon="5.91833">
        <ele>335.1</ele>
        <time>2013-09-11T09:11:03.000Z</time>
      </trkpt>
      <trkpt lat="45.31613" lon="5.91829">
        <ele>330.6</ele>
        <time>2013-09-11T09:11:14.000Z</time>
      </trkpt>
      <trkpt lat="45.31611" lon="5.91827">
        <ele>330.7</ele>
        <time>2013-09-11T09:11:19.000Z</time>
      </trkpt>
      <trkpt lat="45.31607" lon="5.91825">
        <ele>331.2</ele>
        <time>2013-09-11T09:11:33.000Z</time>
      </trkpt>
      <trkpt lat="45.31607" lon="5.91825">
        <ele>331.2</ele>
        <time>2013-09-11T09:11:38.000Z</time>
      </trkpt>
      <trkpt lat="45.31615" lon="5.91802">
        <ele>328.2</ele>
        <time>2013-09-11T09:11:43.000Z</time>
      </trkpt>
      <trkpt lat="45.31614" lon="5.91799">
        <ele>327.8</ele>
        <time>2013-09-11T09:11:48.000Z</time>
      </trkpt>
      <trkpt lat="45.31614" lon="5.91795">
        <ele>327.3</ele>
        <time>2013-09-11T09:11:53.000Z</time>
      </trkpt>
      <trkpt lat="45.31608" lon="5.91794">
        <ele>325.5</ele>
        <time>2013-09-11T09:11:57.000Z</time>
      </trkpt>
      <trkpt lat="45.31608" lon="5.91794">
        <ele>326.4</ele>
        <time>2013-09-11T09:12:23.000Z</time>
      </trkpt>
      <trkpt lat="45.3161" lon="5.91782">
        <ele>327.9</ele>
        <time>2013-09-11T09:12:28.000Z</time>
      </trkpt>
      <trkpt lat="45.31614" lon="5.91765">
        <ele>331.2</ele>
        <time>2013-09-11T09:12:33.000Z</time>
      </trkpt>
      <trkpt lat="45.31621" lon="5.91759">
        <ele>330.3</ele>
        <time>2013-09-11T09:12:38.000Z</time>
      </trkpt>
      <trkpt lat="45.31631" lon="5.91757">
        <ele>328</ele>
        <time>2013-09-11T09:12:43.000Z</time>
      </trkpt>
      <trkpt lat="45.3164" lon="5.91756">
        <ele>328.1</ele>
        <time>2013-09-11T09:12:48.000Z</time>
      </trkpt>
      <trkpt lat="45.31645" lon="5.91753">
        <ele>326.6</ele>
        <time>2013-09-11T09:12:53.000Z</time>
      </trkpt>
      <trkpt lat="45.31638" lon="5.91749">
        <ele>328.9</ele>
        <time>2013-09-11T09:12:59.000Z</time>
      </trkpt>
      <trkpt lat="45.31655" lon="5.9174">
        <ele>332.2</ele>
        <time>2013-09-11T09:13:04.000Z</time>
      </trkpt>
      <trkpt lat="45.31698" lon="5.91721">
        <ele>342.8</ele>
        <time>2013-09-11T09:13:08.000Z</time>
      </trkpt>
      <trkpt lat="45.31695" lon="5.91712">
        <ele>348.1</ele>
        <time>2013-09-11T09:13:13.000Z</time>
      </trkpt>
      <trkpt lat="45.31704" lon="5.91708">
        <ele>348.1</ele>
        <time>2013-09-11T09:13:18.000Z</time>
      </trkpt>
      <trkpt lat="45.31713" lon="5.91692">
        <ele>348.6</ele>
        <time>2013-09-11T09:13:23.000Z</time>
      </trkpt>
      <trkpt lat="45.31737" lon="5.9166">
        <ele>343.1</ele>
        <time>2013-09-11T09:13:28.000Z</time>
      </trkpt>
      <trkpt lat="45.31731" lon="5.91658">
        <ele>343</ele>
        <time>2013-09-11T09:13:33.000Z</time>
      </trkpt>
      <trkpt lat="45.31715" lon="5.91669">
        <ele>346.1</ele>
        <time>2013-09-11T09:13:38.000Z</time>
      </trkpt>
      <trkpt lat="45.31696" lon="5.9171">
        <ele>340.8</ele>
        <time>2013-09-11T09:13:43.000Z</time>
      </trkpt>
      <trkpt lat="45.31667" lon="5.91717">
        <ele>343.6</ele>
        <time>2013-09-11T09:13:48.000Z</time>
      </trkpt>
      <trkpt lat="45.31643" lon="5.91731">
        <ele>342.2</ele>
        <time>2013-09-11T09:13:53.000Z</time>
      </trkpt>
      <trkpt lat="45.31613" lon="5.91777">
        <ele>335.6</ele>
        <time>2013-09-11T09:13:59.000Z</time>
      </trkpt>
      <trkpt lat="45.31592" lon="5.91802">
        <ele>337.2</ele>
        <time>2013-09-11T09:14:03.000Z</time>
      </trkpt>
      <trkpt lat="45.3156" lon="5.91836">
        <ele>340</ele>
        <time>2013-09-11T09:14:08.000Z</time>
      </trkpt>
      <trkpt lat="45.31555" lon="5.91866">
        <ele>337.1</ele>
        <time>2013-09-11T09:14:13.000Z</time>
      </trkpt>
      <trkpt lat="45.31528" lon="5.91869">
        <ele>337.1</ele>
        <time>2013-09-11T09:14:19.000Z</time>
      </trkpt>
      <trkpt lat="45.31514" lon="5.9186">
        <ele>337.6</ele>
        <time>2013-09-11T09:14:23.000Z</time>
      </trkpt>
      <trkpt lat="45.31486" lon="5.9184">
        <ele>338.3</ele>
        <time>2013-09-11T09:14:29.000Z</time>
      </trkpt>
      <trkpt lat="45.31462" lon="5.91829">
        <ele>337.8</ele>
        <time>2013-09-11T09:14:33.000Z</time>
      </trkpt>
      <trkpt lat="45.31441" lon="5.91817">
        <ele>329.5</ele>
        <time>2013-09-11T09:14:38.000Z</time>
      </trkpt>
      <trkpt lat="45.3144" lon="5.91802">
        <ele>329.6</ele>
        <time>2013-09-11T09:14:42.000Z</time>
      </trkpt>
      <trkpt lat="45.31448" lon="5.91783">
        <ele>332</ele>
        <time>2013-09-11T09:14:47.000Z</time>
      </trkpt>
      <trkpt lat="45.31451" lon="5.91768">
        <ele>334.2</ele>
        <time>2013-09-11T09:14:52.000Z</time>
      </trkpt>
      <trkpt lat="45.31457" lon="5.9175">
        <ele>335.9</ele>
        <time>2013-09-11T09:14:57.000Z</time>
      </trkpt>
      <trkpt lat="45.31462" lon="5.9173">
        <ele>337.1</ele>
        <time>2013-09-11T09:15:03.000Z</time>
      </trkpt>
      <trkpt lat="45.31467" lon="5.91724">
        <ele>337.3</ele>
        <time>2013-09-11T09:15:08.000Z</time>
      </trkpt>
      <trkpt lat="45.31475" lon="5.91715">
        <ele>338.3</ele>
        <time>2013-09-11T09:15:13.000Z</time>
      </trkpt>
      <trkpt lat="45.31479" lon="5.91699">
        <ele>338.3</ele>
        <time>2013-09-11T09:15:17.000Z</time>
      </trkpt>
      <trkpt lat="45.31485" lon="5.91682">
        <ele>341.4</ele>
        <time>2013-09-11T09:15:23.000Z</time>
      </trkpt>
      <trkpt lat="45.31497" lon="5.9164">
        <ele>337.7</ele>
        <time>2013-09-11T09:15:28.000Z</time>
      </trkpt>
      <trkpt lat="45.31499" lon="5.9162">
        <ele>338.4</ele>
        <time>2013-09-11T09:15:33.000Z</time>
      </trkpt>
      <trkpt lat="45.31487" lon="5.91601">
        <ele>339.2</ele>
        <time>2013-09-11T09:15:38.000Z</time>
      </trkpt>
      <trkpt lat="45.31483" lon="5.91589">
        <ele>341.9</ele>
        <time>2013-09-11T09:15:43.000Z</time>
      </trkpt>
      <trkpt lat="45.31469" lon="5.91579">
        <ele>342.7</ele>
        <time>2013-09-11T09:15:48.000Z</time>
      </trkpt>
      <trkpt lat="45.31462" lon="5.91559">
        <ele>341.3</ele>
        <time>2013-09-11T09:15:53.000Z</time>
      </trkpt>
      <trkpt lat="45.31454" lon="5.9154">
        <ele>340.4</ele>
        <time>2013-09-11T09:15:58.000Z</time>
      </trkpt>
      <trkpt lat="45.31456" lon="5.91523">
        <ele>342</ele>
        <time>2013-09-11T09:16:03.000Z</time>
      </trkpt>
      <trkpt lat="45.31454" lon="5.91508">
        <ele>341.1</ele>
        <time>2013-09-11T09:16:08.000Z</time>
      </trkpt>
      <trkpt lat="45.31457" lon="5.91492">
        <ele>342</ele>
        <time>2013-09-11T09:16:13.000Z</time>
      </trkpt>
      <trkpt lat="45.31454" lon="5.91483">
        <ele>342.3</ele>
        <time>2013-09-11T09:16:17.000Z</time>
      </trkpt>
      <trkpt lat="45.3145" lon="5.91472">
        <ele>344.1</ele>
        <time>2013-09-11T09:16:23.000Z</time>
      </trkpt>
      <trkpt lat="45.31439" lon="5.91458">
        <ele>345</ele>
        <time>2013-09-11T09:16:28.000Z</time>
      </trkpt>
      <trkpt lat="45.31429" lon="5.91438">
        <ele>344.3</ele>
        <time>2013-09-11T09:16:34.000Z</time>
      </trkpt>
      <trkpt lat="45.31418" lon="5.9142">
        <ele>347.6</ele>
        <time>2013-09-11T09:16:39.000Z</time>
      </trkpt>
      <trkpt lat="45.31404" lon="5.91409">
        <ele>348.2</ele>
        <time>2013-09-11T09:16:44.000Z</time>
      </trkpt>
      <trkpt lat="45.31392" lon="5.91399">
        <ele>347.6</ele>
        <time>2013-09-11T09:16:49.000Z</time>
      </trkpt>
      <trkpt lat="45.31387" lon="5.91396">
        <ele>349.7</ele>
        <time>2013-09-11T09:16:54.000Z</time>
      </trkpt>
      <trkpt lat="45.3138" lon="5.91391">
        <ele>350</ele>
        <time>2013-09-11T09:16:58.000Z</time>
      </trkpt>
      <trkpt lat="45.3136" lon="5.91383">
        <ele>347.5</ele>
        <time>2013-09-11T09:17:03.000Z</time>
      </trkpt>
      <trkpt lat="45.31345" lon="5.91381">
        <ele>347.9</ele>
        <time>2013-09-11T09:17:08.000Z</time>
      </trkpt>
      <trkpt lat="45.31326" lon="5.91377">
        <ele>346.9</ele>
        <time>2013-09-11T09:17:13.000Z</time>
      </trkpt>
      <trkpt lat="45.31293" lon="5.9137">
        <ele>346.7</ele>
        <time>2013-09-11T09:17:19.000Z</time>
      </trkpt>
      <trkpt lat="45.31275" lon="5.91368">
        <ele>348.6</ele>
        <time>2013-09-11T09:17:24.000Z</time>
      </trkpt>
      <trkpt lat="45.31255" lon="5.91378">
        <ele>348.8</ele>
        <time>2013-09-11T09:17:29.000Z</time>
      </trkpt>
      <trkpt lat="45.31244" lon="5.91382">
        <ele>347.3</ele>
        <time>2013-09-11T09:17:33.000Z</time>
      </trkpt>
      <trkpt lat="45.31236" lon="5.91382">
        <ele>350.6</ele>
        <time>2013-09-11T09:17:38.000Z</time>
      </trkpt>
      <trkpt lat="45.31222" lon="5.91382">
        <ele>351</ele>
        <time>2013-09-11T09:17:43.000Z</time>
      </trkpt>
      <trkpt lat="45.31201" lon="5.91381">
        <ele>351.5</ele>
        <time>2013-09-11T09:17:48.000Z</time>
      </trkpt>
      <trkpt lat="45.3117" lon="5.91376">
        <ele>352.1</ele>
        <time>2013-09-11T09:17:53.000Z</time>
      </trkpt>
      <trkpt lat="45.31155" lon="5.91368">
        <ele>351.9</ele>
        <time>2013-09-11T09:17:58.000Z</time>
      </trkpt>
      <trkpt lat="45.31144" lon="5.91357">
        <ele>351.6</ele>
        <time>2013-09-11T09:18:03.000Z</time>
      </trkpt>
      <trkpt lat="45.31119" lon="5.91356">
        <ele>345.6</ele>
        <time>2013-09-11T09:18:08.000Z</time>
      </trkpt>
      <trkpt lat="45.31091" lon="5.9136">
        <ele>346.1</ele>
        <time>2013-09-11T09:18:13.000Z</time>
      </trkpt>
      <trkpt lat="45.31061" lon="5.91352">
        <ele>346.7</ele>
        <time>2013-09-11T09:18:18.000Z</time>
      </trkpt>
      <trkpt lat="45.3103" lon="5.91332">
        <ele>346.5</ele>
        <time>2013-09-11T09:18:23.000Z</time>
      </trkpt>
      <trkpt lat="45.31001" lon="5.91306">
        <ele>346.4</ele>
        <time>2013-09-11T09:18:28.000Z</time>
      </trkpt>
      <trkpt lat="45.30975" lon="5.91274">
        <ele>342.3</ele>
        <time>2013-09-11T09:18:33.000Z</time>
      </trkpt>
      <trkpt lat="45.30943" lon="5.91246">
        <ele>340.7</ele>
        <time>2013-09-11T09:18:39.000Z</time>
      </trkpt>
      <trkpt lat="45.30924" lon="5.91225">
        <ele>342</ele>
        <time>2013-09-11T09:18:44.000Z</time>
      </trkpt>
      <trkpt lat="45.30902" lon="5.91208">
        <ele>342.7</ele>
        <time>2013-09-11T09:18:49.000Z</time>
      </trkpt>
      <trkpt lat="45.30893" lon="5.9119">
        <ele>342.2</ele>
        <time>2013-09-11T09:18:54.000Z</time>
      </trkpt>
      <trkpt lat="45.30886" lon="5.91181">
        <ele>342.9</ele>
        <time>2013-09-11T09:18:58.000Z</time>
      </trkpt>
      <trkpt lat="45.30886" lon="5.91155">
        <ele>342.2</ele>
        <time>2013-09-11T09:19:03.000Z</time>
      </trkpt>
      <trkpt lat="45.30875" lon="5.91123">
        <ele>341.6</ele>
        <time>2013-09-11T09:19:08.000Z</time>
      </trkpt>
      <trkpt lat="45.30855" lon="5.91089">
        <ele>341</ele>
        <time>2013-09-11T09:19:13.000Z</time>
      </trkpt>
      <trkpt lat="45.30839" lon="5.91069">
        <ele>338.3</ele>
        <time>2013-09-11T09:19:18.000Z</time>
      </trkpt>
      <trkpt lat="45.30829" lon="5.91039">
        <ele>337.5</ele>
        <time>2013-09-11T09:19:23.000Z</time>
      </trkpt>
      <trkpt lat="45.30822" lon="5.9101">
        <ele>337.7</ele>
        <time>2013-09-11T09:19:28.000Z</time>
      </trkpt>
      <trkpt lat="45.30805" lon="5.90976">
        <ele>336.8</ele>
        <time>2013-09-11T09:19:33.000Z</time>
      </trkpt>
      <trkpt lat="45.30789" lon="5.90943">
        <ele>334.6</ele>
        <time>2013-09-11T09:19:38.000Z</time>
      </trkpt>
      <trkpt lat="45.30768" lon="5.90918">
        <ele>334.3</ele>
        <time>2013-09-11T09:19:43.000Z</time>
      </trkpt>
      <trkpt lat="45.30751" lon="5.90898">
        <ele>333.9</ele>
        <time>2013-09-11T09:19:48.000Z</time>
      </trkpt>
      <trkpt lat="45.30734" lon="5.90884">
        <ele>334.8</ele>
        <time>2013-09-11T09:19:53.000Z</time>
      </trkpt>
      <trkpt lat="45.30726" lon="5.90863">
        <ele>335.6</ele>
        <time>2013-09-11T09:19:58.000Z</time>
      </trkpt>
      <trkpt lat="45.30715" lon="5.90843">
        <ele>336.3</ele>
        <time>2013-09-11T09:20:03.000Z</time>
      </trkpt>
      <trkpt lat="45.30695" lon="5.90822">
        <ele>336.1</ele>
        <time>2013-09-11T09:20:08.000Z</time>
      </trkpt>
      <trkpt lat="45.30677" lon="5.90802">
        <ele>336.2</ele>
        <time>2013-09-11T09:20:13.000Z</time>
      </trkpt>
      <trkpt lat="45.30662" lon="5.90778">
        <ele>334.4</ele>
        <time>2013-09-11T09:20:19.000Z</time>
      </trkpt>
      <trkpt lat="45.30646" lon="5.90751">
        <ele>335.2</ele>
        <time>2013-09-11T09:20:24.000Z</time>
      </trkpt>
      <trkpt lat="45.30628" lon="5.90735">
        <ele>335</ele>
        <time>2013-09-11T09:20:28.000Z</time>
      </trkpt>
      <trkpt lat="45.30609" lon="5.90704">
        <ele>335.9</ele>
        <time>2013-09-11T09:20:33.000Z</time>
      </trkpt>
      <trkpt lat="45.30595" lon="5.90672">
        <ele>336.8</ele>
        <time>2013-09-11T09:20:39.000Z</time>
      </trkpt>
      <trkpt lat="45.30592" lon="5.90639">
        <ele>336.9</ele>
        <time>2013-09-11T09:20:44.000Z</time>
      </trkpt>
      <trkpt lat="45.30586" lon="5.90621">
        <ele>340</ele>
        <time>2013-09-11T09:20:48.000Z</time>
      </trkpt>
      <trkpt lat="45.3057" lon="5.906">
        <ele>343.1</ele>
        <time>2013-09-11T09:20:53.000Z</time>
      </trkpt>
      <trkpt lat="45.30556" lon="5.90571">
        <ele>344</ele>
        <time>2013-09-11T09:20:59.000Z</time>
      </trkpt>
      <trkpt lat="45.30548" lon="5.90553">
        <ele>342.4</ele>
        <time>2013-09-11T09:21:03.000Z</time>
      </trkpt>
      <trkpt lat="45.30542" lon="5.90539">
        <ele>342.3</ele>
        <time>2013-09-11T09:21:08.000Z</time>
      </trkpt>
      <trkpt lat="45.30534" lon="5.90533">
        <ele>342</ele>
        <time>2013-09-11T09:21:13.000Z</time>
      </trkpt>
      <trkpt lat="45.30525" lon="5.90524">
        <ele>342.9</ele>
        <time>2013-09-11T09:21:18.000Z</time>
      </trkpt>
      <trkpt lat="45.30506" lon="5.90508">
        <ele>343.6</ele>
        <time>2013-09-11T09:21:23.000Z</time>
      </trkpt>
      <trkpt lat="45.30485" lon="5.90486">
        <ele>343.5</ele>
        <time>2013-09-11T09:21:28.000Z</time>
      </trkpt>
      <trkpt lat="45.30447" lon="5.90458">
        <ele>343.3</ele>
        <time>2013-09-11T09:21:34.000Z</time>
      </trkpt>
      <trkpt lat="45.30425" lon="5.90442">
        <ele>343.1</ele>
        <time>2013-09-11T09:21:38.000Z</time>
      </trkpt>
      <trkpt lat="45.304" lon="5.90396">
        <ele>341.3</ele>
        <time>2013-09-11T09:21:44.000Z</time>
      </trkpt>
      <trkpt lat="45.30393" lon="5.90371">
        <ele>340.4</ele>
        <time>2013-09-11T09:21:48.000Z</time>
      </trkpt>
      <trkpt lat="45.30377" lon="5.90341">
        <ele>340.9</ele>
        <time>2013-09-11T09:21:53.000Z</time>
      </trkpt>
      <trkpt lat="45.30365" lon="5.90311">
        <ele>340.9</ele>
        <time>2013-09-11T09:21:58.000Z</time>
      </trkpt>
      <trkpt lat="45.3033" lon="5.90268">
        <ele>339.4</ele>
        <time>2013-09-11T09:22:04.000Z</time>
      </trkpt>
      <trkpt lat="45.30314" lon="5.90248">
        <ele>331.5</ele>
        <time>2013-09-11T09:22:08.000Z</time>
      </trkpt>
      <trkpt lat="45.30289" lon="5.90263">
        <ele>321.9</ele>
        <time>2013-09-11T09:22:13.000Z</time>
      </trkpt>
      <trkpt lat="45.3028" lon="5.90316">
        <ele>318.9</ele>
        <time>2013-09-11T09:22:18.000Z</time>
      </trkpt>
      <trkpt lat="45.30266" lon="5.90369">
        <ele>317.2</ele>
        <time>2013-09-11T09:22:23.000Z</time>
      </trkpt>
      <trkpt lat="45.30252" lon="5.90398">
        <ele>317.5</ele>
        <time>2013-09-11T09:22:28.000Z</time>
      </trkpt>
      <trkpt lat="45.30244" lon="5.90416">
        <ele>311.5</ele>
        <time>2013-09-11T09:22:33.000Z</time>
      </trkpt>
      <trkpt lat="45.30247" lon="5.90408">
        <ele>312</ele>
        <time>2013-09-11T09:22:37.000Z</time>
      </trkpt>
      <trkpt lat="45.30229" lon="5.90388">
        <ele>313.9</ele>
        <time>2013-09-11T09:22:43.000Z</time>
      </trkpt>
      <trkpt lat="45.30208" lon="5.90367">
        <ele>314.6</ele>
        <time>2013-09-11T09:22:48.000Z</time>
      </trkpt>
      <trkpt lat="45.3019" lon="5.90344">
        <ele>314.2</ele>
        <time>2013-09-11T09:22:53.000Z</time>
      </trkpt>
      <trkpt lat="45.30165" lon="5.90318">
        <ele>313.1</ele>
        <time>2013-09-11T09:22:59.000Z</time>
      </trkpt>
      <trkpt lat="45.30152" lon="5.90301">
        <ele>311.8</ele>
        <time>2013-09-11T09:23:03.000Z</time>
      </trkpt>
      <trkpt lat="45.30132" lon="5.90278">
        <ele>308.2</ele>
        <time>2013-09-11T09:23:08.000Z</time>
      </trkpt>
      <trkpt lat="45.30115" lon="5.90252">
        <ele>308</ele>
        <time>2013-09-11T09:23:13.000Z</time>
      </trkpt>
      <trkpt lat="45.3009" lon="5.90225">
        <ele>305.9</ele>
        <time>2013-09-11T09:23:19.000Z</time>
      </trkpt>
      <trkpt lat="45.30077" lon="5.90205">
        <ele>302.1</ele>
        <time>2013-09-11T09:23:24.000Z</time>
      </trkpt>
      <trkpt lat="45.30069" lon="5.90191">
        <ele>301.7</ele>
        <time>2013-09-11T09:23:29.000Z</time>
      </trkpt>
      <trkpt lat="45.30059" lon="5.90186">
        <ele>301.7</ele>
        <time>2013-09-11T09:23:34.000Z</time>
      </trkpt>
      <trkpt lat="45.30057" lon="5.90188">
        <ele>302.2</ele>
        <time>2013-09-11T09:23:39.000Z</time>
      </trkpt>
      <trkpt lat="45.30052" lon="5.9019">
        <ele>298.8</ele>
        <time>2013-09-11T09:23:43.000Z</time>
      </trkpt>
      <trkpt lat="45.30042" lon="5.90207">
        <ele>299.5</ele>
        <time>2013-09-11T09:23:48.000Z</time>
      </trkpt>
      <trkpt lat="45.30027" lon="5.90246">
        <ele>296.8</ele>
        <time>2013-09-11T09:23:53.000Z</time>
      </trkpt>
      <trkpt lat="45.30007" lon="5.9029">
        <ele>297</ele>
        <time>2013-09-11T09:23:58.000Z</time>
      </trkpt>
      <trkpt lat="45.29976" lon="5.9034">
        <ele>295.2</ele>
        <time>2013-09-11T09:24:03.000Z</time>
      </trkpt>
      <trkpt lat="45.29942" lon="5.90361">
        <ele>294.1</ele>
        <time>2013-09-11T09:24:08.000Z</time>
      </trkpt>
      <trkpt lat="45.29909" lon="5.90373">
        <ele>294.9</ele>
        <time>2013-09-11T09:24:13.000Z</time>
      </trkpt>
      <trkpt lat="45.29877" lon="5.90401">
        <ele>296</ele>
        <time>2013-09-11T09:24:18.000Z</time>
      </trkpt>
      <trkpt lat="45.29845" lon="5.90446">
        <ele>295.7</ele>
        <time>2013-09-11T09:24:23.000Z</time>
      </trkpt>
      <trkpt lat="45.29822" lon="5.90481">
        <ele>297.5</ele>
        <time>2013-09-11T09:24:28.000Z</time>
      </trkpt>
      <trkpt lat="45.29793" lon="5.90486">
        <ele>295.3</ele>
        <time>2013-09-11T09:24:33.000Z</time>
      </trkpt>
      <trkpt lat="45.29772" lon="5.90473">
        <ele>295.5</ele>
        <time>2013-09-11T09:24:38.000Z</time>
      </trkpt>
      <trkpt lat="45.29761" lon="5.90486">
        <ele>293.9</ele>
        <time>2013-09-11T09:24:43.000Z</time>
      </trkpt>
      <trkpt lat="45.29748" lon="5.90486">
        <ele>293.9</ele>
        <time>2013-09-11T09:24:48.000Z</time>
      </trkpt>
      <trkpt lat="45.29726" lon="5.9048">
        <ele>294.6</ele>
        <time>2013-09-11T09:24:53.000Z</time>
      </trkpt>
      <trkpt lat="45.297" lon="5.90469">
        <ele>295.6</ele>
        <time>2013-09-11T09:24:58.000Z</time>
      </trkpt>
      <trkpt lat="45.29674" lon="5.9046">
        <ele>295.1</ele>
        <time>2013-09-11T09:25:03.000Z</time>
      </trkpt>
      <trkpt lat="45.29643" lon="5.90452">
        <ele>296.4</ele>
        <time>2013-09-11T09:25:08.000Z</time>
      </trkpt>
      <trkpt lat="45.29622" lon="5.90438">
        <ele>294.9</ele>
        <time>2013-09-11T09:25:13.000Z</time>
      </trkpt>
      <trkpt lat="45.29585" lon="5.9043">
        <ele>290.8</ele>
        <time>2013-09-11T09:25:18.000Z</time>
      </trkpt>
      <trkpt lat="45.29558" lon="5.90418">
        <ele>288.9</ele>
        <time>2013-09-11T09:25:23.000Z</time>
      </trkpt>
      <trkpt lat="45.2953" lon="5.90407">
        <ele>286.4</ele>
        <time>2013-09-11T09:25:28.000Z</time>
      </trkpt>
      <trkpt lat="45.29503" lon="5.90395">
        <ele>287.5</ele>
        <time>2013-09-11T09:25:33.000Z</time>
      </trkpt>
      <trkpt lat="45.29481" lon="5.90385">
        <ele>287.7</ele>
        <time>2013-09-11T09:25:38.000Z</time>
      </trkpt>
      <trkpt lat="45.29445" lon="5.90376">
        <ele>286.8</ele>
        <time>2013-09-11T09:25:44.000Z</time>
      </trkpt>
      <trkpt lat="45.29413" lon="5.9036">
        <ele>286.6</ele>
        <time>2013-09-11T09:25:49.000Z</time>
      </trkpt>
      <trkpt lat="45.2939" lon="5.90352">
        <ele>286.6</ele>
        <time>2013-09-11T09:25:54.000Z</time>
      </trkpt>
      <trkpt lat="45.29364" lon="5.90344">
        <ele>285.8</ele>
        <time>2013-09-11T09:25:58.000Z</time>
      </trkpt>
      <trkpt lat="45.29335" lon="5.90331">
        <ele>284.7</ele>
        <time>2013-09-11T09:26:03.000Z</time>
      </trkpt>
      <trkpt lat="45.29309" lon="5.90324">
        <ele>284.3</ele>
        <time>2013-09-11T09:26:08.000Z</time>
      </trkpt>
      <trkpt lat="45.29282" lon="5.90313">
        <ele>283.4</ele>
        <time>2013-09-11T09:26:13.000Z</time>
      </trkpt>
      <trkpt lat="45.29252" lon="5.90305">
        <ele>281.9</ele>
        <time>2013-09-11T09:26:18.000Z</time>
      </trkpt>
      <trkpt lat="45.29223" lon="5.90297">
        <ele>282.4</ele>
        <time>2013-09-11T09:26:23.000Z</time>
      </trkpt>
      <trkpt lat="45.29197" lon="5.90298">
        <ele>285.3</ele>
        <time>2013-09-11T09:26:28.000Z</time>
      </trkpt>
      <trkpt lat="45.29175" lon="5.90305">
        <ele>283.7</ele>
        <time>2013-09-11T09:26:33.000Z</time>
      </trkpt>
      <trkpt lat="45.29152" lon="5.90313">
        <ele>283.5</ele>
        <time>2013-09-11T09:26:38.000Z</time>
      </trkpt>
      <trkpt lat="45.29126" lon="5.90321">
        <ele>283.6</ele>
        <time>2013-09-11T09:26:43.000Z</time>
      </trkpt>
      <trkpt lat="45.29105" lon="5.90331">
        <ele>282.8</ele>
        <time>2013-09-11T09:26:48.000Z</time>
      </trkpt>
      <trkpt lat="45.29088" lon="5.90337">
        <ele>284.1</ele>
        <time>2013-09-11T09:26:53.000Z</time>
      </trkpt>
      <trkpt lat="45.29064" lon="5.90318">
        <ele>280.9</ele>
        <time>2013-09-11T09:26:58.000Z</time>
      </trkpt>
      <trkpt lat="45.29052" lon="5.90288">
        <ele>281.4</ele>
        <time>2013-09-11T09:27:03.000Z</time>
      </trkpt>
      <trkpt lat="45.29048" lon="5.90254">
        <ele>281.9</ele>
        <time>2013-09-11T09:27:08.000Z</time>
      </trkpt>
      <trkpt lat="45.29039" lon="5.90214">
        <ele>284.4</ele>
        <time>2013-09-11T09:27:14.000Z</time>
      </trkpt>
      <trkpt lat="45.29034" lon="5.90181">
        <ele>283.9</ele>
        <time>2013-09-11T09:27:19.000Z</time>
      </trkpt>
      <trkpt lat="45.29026" lon="5.90156">
        <ele>285.4</ele>
        <time>2013-09-11T09:27:24.000Z</time>
      </trkpt>
      <trkpt lat="45.29017" lon="5.90121">
        <ele>287.4</ele>
        <time>2013-09-11T09:27:29.000Z</time>
      </trkpt>
      <trkpt lat="45.29011" lon="5.90084">
        <ele>283.9</ele>
        <time>2013-09-11T09:27:34.000Z</time>
      </trkpt>
      <trkpt lat="45.29001" lon="5.90054">
        <ele>282.4</ele>
        <time>2013-09-11T09:27:38.000Z</time>
      </trkpt>
      <trkpt lat="45.28995" lon="5.90023">
        <ele>284.1</ele>
        <time>2013-09-11T09:27:43.000Z</time>
      </trkpt>
      <trkpt lat="45.28986" lon="5.89988">
        <ele>284.3</ele>
        <time>2013-09-11T09:27:49.000Z</time>
      </trkpt>
      <trkpt lat="45.2898" lon="5.89949">
        <ele>283.9</ele>
        <time>2013-09-11T09:27:54.000Z</time>
      </trkpt>
      <trkpt lat="45.28977" lon="5.89905">
        <ele>282.7</ele>
        <time>2013-09-11T09:27:59.000Z</time>
      </trkpt>
      <trkpt lat="45.28968" lon="5.89868">
        <ele>281.5</ele>
        <time>2013-09-11T09:28:04.000Z</time>
      </trkpt>
      <trkpt lat="45.28957" lon="5.89834">
        <ele>281.5</ele>
        <time>2013-09-11T09:28:09.000Z</time>
      </trkpt>
      <trkpt lat="45.28952" lon="5.89798">
        <ele>281.7</ele>
        <time>2013-09-11T09:28:14.000Z</time>
      </trkpt>
      <trkpt lat="45.28956" lon="5.8977">
        <ele>284.7</ele>
        <time>2013-09-11T09:28:19.000Z</time>
      </trkpt>
      <trkpt lat="45.28969" lon="5.89742">
        <ele>287.4</ele>
        <time>2013-09-11T09:28:24.000Z</time>
      </trkpt>
      <trkpt lat="45.28976" lon="5.89719">
        <ele>289.2</ele>
        <time>2013-09-11T09:28:28.000Z</time>
      </trkpt>
      <trkpt lat="45.28995" lon="5.89679">
        <ele>288.4</ele>
        <time>2013-09-11T09:28:33.000Z</time>
      </trkpt>
      <trkpt lat="45.29019" lon="5.89626">
        <ele>287.2</ele>
        <time>2013-09-11T09:28:39.000Z</time>
      </trkpt>
      <trkpt lat="45.29032" lon="5.89597">
        <ele>288.2</ele>
        <time>2013-09-11T09:28:44.000Z</time>
      </trkpt>
      <trkpt lat="45.29046" lon="5.89567">
        <ele>288.5</ele>
        <time>2013-09-11T09:28:48.000Z</time>
      </trkpt>
      <trkpt lat="45.29056" lon="5.89538">
        <ele>289.5</ele>
        <time>2013-09-11T09:28:53.000Z</time>
      </trkpt>
      <trkpt lat="45.2906" lon="5.89502">
        <ele>290.4</ele>
        <time>2013-09-11T09:28:58.000Z</time>
      </trkpt>
      <trkpt lat="45.29056" lon="5.89467">
        <ele>289.8</ele>
        <time>2013-09-11T09:29:03.000Z</time>
      </trkpt>
      <trkpt lat="45.29054" lon="5.89429">
        <ele>289</ele>
        <time>2013-09-11T09:29:08.000Z</time>
      </trkpt>
      <trkpt lat="45.29051" lon="5.89386">
        <ele>290.1</ele>
        <time>2013-09-11T09:29:14.000Z</time>
      </trkpt>
      <trkpt lat="45.29049" lon="5.89349">
        <ele>290.7</ele>
        <time>2013-09-11T09:29:19.000Z</time>
      </trkpt>
      <trkpt lat="45.29038" lon="5.89318">
        <ele>287.9</ele>
        <time>2013-09-11T09:29:24.000Z</time>
      </trkpt>
      <trkpt lat="45.29036" lon="5.89287">
        <ele>288.4</ele>
        <time>2013-09-11T09:29:29.000Z</time>
      </trkpt>
      <trkpt lat="45.29034" lon="5.89261">
        <ele>287.1</ele>
        <time>2013-09-11T09:29:33.000Z</time>
      </trkpt>
      <trkpt lat="45.29027" lon="5.89234">
        <ele>285.7</ele>
        <time>2013-09-11T09:29:38.000Z</time>
      </trkpt>
      <trkpt lat="45.29012" lon="5.89208">
        <ele>285.4</ele>
        <time>2013-09-11T09:29:43.000Z</time>
      </trkpt>
      <trkpt lat="45.28994" lon="5.8918">
        <ele>286.2</ele>
        <time>2013-09-11T09:29:48.000Z</time>
      </trkpt>
      <trkpt lat="45.28981" lon="5.8915">
        <ele>284.9</ele>
        <time>2013-09-11T09:29:53.000Z</time>
      </trkpt>
      <trkpt lat="45.28967" lon="5.89119">
        <ele>283.3</ele>
        <time>2013-09-11T09:29:58.000Z</time>
      </trkpt>
      <trkpt lat="45.28951" lon="5.89096">
        <ele>282.8</ele>
        <time>2013-09-11T09:30:03.000Z</time>
      </trkpt>
      <trkpt lat="45.28936" lon="5.89063">
        <ele>284.2</ele>
        <time>2013-09-11T09:30:09.000Z</time>
      </trkpt>
      <trkpt lat="45.28933" lon="5.89042">
        <ele>285.1</ele>
        <time>2013-09-11T09:30:13.000Z</time>
      </trkpt>
      <trkpt lat="45.28929" lon="5.89011">
        <ele>285.8</ele>
        <time>2013-09-11T09:30:18.000Z</time>
      </trkpt>
      <trkpt lat="45.28924" lon="5.88986">
        <ele>285.6</ele>
        <time>2013-09-11T09:30:23.000Z</time>
      </trkpt>
      <trkpt lat="45.28918" lon="5.88965">
        <ele>286.3</ele>
        <time>2013-09-11T09:30:28.000Z</time>
      </trkpt>
      <trkpt lat="45.28914" lon="5.8895">
        <ele>288.8</ele>
        <time>2013-09-11T09:30:33.000Z</time>
      </trkpt>
      <trkpt lat="45.28914" lon="5.88937">
        <ele>290.6</ele>
        <time>2013-09-11T09:30:38.000Z</time>
      </trkpt>
      <trkpt lat="45.28914" lon="5.88926">
        <ele>290.8</ele>
        <time>2013-09-11T09:30:43.000Z</time>
      </trkpt>
      <trkpt lat="45.28921" lon="5.88907">
        <ele>290.8</ele>
        <time>2013-09-11T09:30:49.000Z</time>
      </trkpt>
      <trkpt lat="45.28917" lon="5.88899">
        <ele>292.8</ele>
        <time>2013-09-11T09:30:54.000Z</time>
      </trkpt>
      <trkpt lat="45.28894" lon="5.88896">
        <ele>289.8</ele>
        <time>2013-09-11T09:30:58.000Z</time>
      </trkpt>
      <trkpt lat="45.28884" lon="5.88908">
        <ele>290.1</ele>
        <time>2013-09-11T09:31:03.000Z</time>
      </trkpt>
      <trkpt lat="45.28878" lon="5.88926">
        <ele>291.3</ele>
        <time>2013-09-11T09:31:08.000Z</time>
      </trkpt>
      <trkpt lat="45.28867" lon="5.88955">
        <ele>294.2</ele>
        <time>2013-09-11T09:31:13.000Z</time>
      </trkpt>
      <trkpt lat="45.28855" lon="5.88995">
        <ele>296.8</ele>
        <time>2013-09-11T09:31:19.000Z</time>
      </trkpt>
      <trkpt lat="45.2885" lon="5.89032">
        <ele>295.5</ele>
        <time>2013-09-11T09:31:24.000Z</time>
      </trkpt>
      <trkpt lat="45.2884" lon="5.89058">
        <ele>295.6</ele>
        <time>2013-09-11T09:31:28.000Z</time>
      </trkpt>
      <trkpt lat="45.28834" lon="5.89086">
        <ele>294.1</ele>
        <time>2013-09-11T09:31:33.000Z</time>
      </trkpt>
      <trkpt lat="45.28828" lon="5.89086">
        <ele>298.7</ele>
        <time>2013-09-11T09:31:38.000Z</time>
      </trkpt>
      <trkpt lat="45.28815" lon="5.89068">
        <ele>295.9</ele>
        <time>2013-09-11T09:31:43.000Z</time>
      </trkpt>
      <trkpt lat="45.28787" lon="5.89038">
        <ele>295.1</ele>
        <time>2013-09-11T09:31:48.000Z</time>
      </trkpt>
      <trkpt lat="45.28773" lon="5.89014">
        <ele>295.3</ele>
        <time>2013-09-11T09:31:53.000Z</time>
      </trkpt>
      <trkpt lat="45.28759" lon="5.88989">
        <ele>295.6</ele>
        <time>2013-09-11T09:31:58.000Z</time>
      </trkpt>
      <trkpt lat="45.28746" lon="5.88961">
        <ele>294.7</ele>
        <time>2013-09-11T09:32:03.000Z</time>
      </trkpt>
      <trkpt lat="45.28735" lon="5.88936">
        <ele>296.1</ele>
        <time>2013-09-11T09:32:08.000Z</time>
      </trkpt>
      <trkpt lat="45.28718" lon="5.88915">
        <ele>295.7</ele>
        <time>2013-09-11T09:32:13.000Z</time>
      </trkpt>
      <trkpt lat="45.28704" lon="5.88893">
        <ele>295.2</ele>
        <time>2013-09-11T09:32:18.000Z</time>
      </trkpt>
      <trkpt lat="45.28688" lon="5.8887">
        <ele>293.3</ele>
        <time>2013-09-11T09:32:23.000Z</time>
      </trkpt>
      <trkpt lat="45.2867" lon="5.88848">
        <ele>293.7</ele>
        <time>2013-09-11T09:32:28.000Z</time>
      </trkpt>
      <trkpt lat="45.28659" lon="5.88822">
        <ele>293.4</ele>
        <time>2013-09-11T09:32:34.000Z</time>
      </trkpt>
      <trkpt lat="45.28643" lon="5.88805">
        <ele>294.5</ele>
        <time>2013-09-11T09:32:38.000Z</time>
      </trkpt>
      <trkpt lat="45.28623" lon="5.88788">
        <ele>295</ele>
        <time>2013-09-11T09:32:43.000Z</time>
      </trkpt>
      <trkpt lat="45.28606" lon="5.88765">
        <ele>293.1</ele>
        <time>2013-09-11T09:32:48.000Z</time>
      </trkpt>
      <trkpt lat="45.28589" lon="5.88746">
        <ele>293.6</ele>
        <time>2013-09-11T09:32:53.000Z</time>
      </trkpt>
      <trkpt lat="45.28572" lon="5.88727">
        <ele>292.6</ele>
        <time>2013-09-11T09:32:58.000Z</time>
      </trkpt>
      <trkpt lat="45.28554" lon="5.88707">
        <ele>290.5</ele>
        <time>2013-09-11T09:33:03.000Z</time>
      </trkpt>
      <trkpt lat="45.28537" lon="5.88691">
        <ele>289.2</ele>
        <time>2013-09-11T09:33:08.000Z</time>
      </trkpt>
      <trkpt lat="45.28525" lon="5.88677">
        <ele>289.4</ele>
        <time>2013-09-11T09:33:13.000Z</time>
      </trkpt>
      <trkpt lat="45.28509" lon="5.88659">
        <ele>292.1</ele>
        <time>2013-09-11T09:33:18.000Z</time>
      </trkpt>
      <trkpt lat="45.28497" lon="5.88638">
        <ele>291.8</ele>
        <time>2013-09-11T09:33:23.000Z</time>
      </trkpt>
      <trkpt lat="45.28481" lon="5.88612">
        <ele>289.7</ele>
        <time>2013-09-11T09:33:29.000Z</time>
      </trkpt>
      <trkpt lat="45.28467" lon="5.8859">
        <ele>293.5</ele>
        <time>2013-09-11T09:33:34.000Z</time>
      </trkpt>
      <trkpt lat="45.28453" lon="5.88572">
        <ele>292.3</ele>
        <time>2013-09-11T09:33:38.000Z</time>
      </trkpt>
      <trkpt lat="45.28436" lon="5.88553">
        <ele>292.8</ele>
        <time>2013-09-11T09:33:43.000Z</time>
      </trkpt>
      <trkpt lat="45.28428" lon="5.88539">
        <ele>294.7</ele>
        <time>2013-09-11T09:33:48.000Z</time>
      </trkpt>
      <trkpt lat="45.28411" lon="5.88522">
        <ele>296.6</ele>
        <time>2013-09-11T09:33:53.000Z</time>
      </trkpt>
      <trkpt lat="45.28402" lon="5.88508">
        <ele>296.3</ele>
        <time>2013-09-11T09:33:58.000Z</time>
      </trkpt>
      <trkpt lat="45.28388" lon="5.88507">
        <ele>298.8</ele>
        <time>2013-09-11T09:34:03.000Z</time>
      </trkpt>
      <trkpt lat="45.28379" lon="5.88499">
        <ele>298</ele>
        <time>2013-09-11T09:34:08.000Z</time>
      </trkpt>
      <trkpt lat="45.28369" lon="5.88484">
        <ele>300.4</ele>
        <time>2013-09-11T09:34:13.000Z</time>
      </trkpt>
      <trkpt lat="45.28346" lon="5.88466">
        <ele>303.6</ele>
        <time>2013-09-11T09:34:18.000Z</time>
      </trkpt>
      <trkpt lat="45.28326" lon="5.88447">
        <ele>306.8</ele>
        <time>2013-09-11T09:34:23.000Z</time>
      </trkpt>
      <trkpt lat="45.28312" lon="5.88417">
        <ele>303.8</ele>
        <time>2013-09-11T09:34:28.000Z</time>
      </trkpt>
      <trkpt lat="45.28298" lon="5.88402">
        <ele>308.1</ele>
        <time>2013-09-11T09:34:33.000Z</time>
      </trkpt>
      <trkpt lat="45.28284" lon="5.8838">
        <ele>307.6</ele>
        <time>2013-09-11T09:34:38.000Z</time>
      </trkpt>
      <trkpt lat="45.28267" lon="5.88361">
        <ele>304.7</ele>
        <time>2013-09-11T09:34:43.000Z</time>
      </trkpt>
      <trkpt lat="45.28248" lon="5.88343">
        <ele>306.3</ele>
        <time>2013-09-11T09:34:48.000Z</time>
      </trkpt>
      <trkpt lat="45.28228" lon="5.88319">
        <ele>306.2</ele>
        <time>2013-09-11T09:34:53.000Z</time>
      </trkpt>
      <trkpt lat="45.28207" lon="5.88291">
        <ele>304.5</ele>
        <time>2013-09-11T09:34:58.000Z</time>
      </trkpt>
      <trkpt lat="45.28184" lon="5.88263">
        <ele>301.9</ele>
        <time>2013-09-11T09:35:03.000Z</time>
      </trkpt>
      <trkpt lat="45.28164" lon="5.88243">
        <ele>301.7</ele>
        <time>2013-09-11T09:35:08.000Z</time>
      </trkpt>
      <trkpt lat="45.28155" lon="5.88219">
        <ele>301.2</ele>
        <time>2013-09-11T09:35:13.000Z</time>
      </trkpt>
      <trkpt lat="45.28134" lon="5.88198">
        <ele>301.7</ele>
        <time>2013-09-11T09:35:18.000Z</time>
      </trkpt>
      <trkpt lat="45.28112" lon="5.88167">
        <ele>300.4</ele>
        <time>2013-09-11T09:35:23.000Z</time>
      </trkpt>
      <trkpt lat="45.28098" lon="5.88139">
        <ele>298.5</ele>
        <time>2013-09-11T09:35:28.000Z</time>
      </trkpt>
      <trkpt lat="45.2807" lon="5.88114">
        <ele>299.3</ele>
        <time>2013-09-11T09:35:33.000Z</time>
      </trkpt>
      <trkpt lat="45.28048" lon="5.88083">
        <ele>297.7</ele>
        <time>2013-09-11T09:35:38.000Z</time>
      </trkpt>
      <trkpt lat="45.28035" lon="5.88053">
        <ele>296.7</ele>
        <time>2013-09-11T09:35:43.000Z</time>
      </trkpt>
      <trkpt lat="45.28011" lon="5.88043">
        <ele>297.6</ele>
        <time>2013-09-11T09:35:48.000Z</time>
      </trkpt>
      <trkpt lat="45.28001" lon="5.88028">
        <ele>300.6</ele>
        <time>2013-09-11T09:35:53.000Z</time>
      </trkpt>
      <trkpt lat="45.27986" lon="5.87998">
        <ele>301.4</ele>
        <time>2013-09-11T09:35:58.000Z</time>
      </trkpt>
      <trkpt lat="45.27978" lon="5.87978">
        <ele>302.4</ele>
        <time>2013-09-11T09:36:02.000Z</time>
      </trkpt>
      <trkpt lat="45.27972" lon="5.87962">
        <ele>306.1</ele>
        <time>2013-09-11T09:36:08.000Z</time>
      </trkpt>
      <trkpt lat="45.27957" lon="5.87939">
        <ele>308.1</ele>
        <time>2013-09-11T09:36:13.000Z</time>
      </trkpt>
      <trkpt lat="45.27929" lon="5.87916">
        <ele>310.6</ele>
        <time>2013-09-11T09:36:18.000Z</time>
      </trkpt>
      <trkpt lat="45.27897" lon="5.87889">
        <ele>311.7</ele>
        <time>2013-09-11T09:36:23.000Z</time>
      </trkpt>
      <trkpt lat="45.27874" lon="5.87866">
        <ele>311.8</ele>
        <time>2013-09-11T09:36:28.000Z</time>
      </trkpt>
      <trkpt lat="45.27854" lon="5.87843">
        <ele>310.1</ele>
        <time>2013-09-11T09:36:33.000Z</time>
      </trkpt>
      <trkpt lat="45.27827" lon="5.87814">
        <ele>310.6</ele>
        <time>2013-09-11T09:36:38.000Z</time>
      </trkpt>
      <trkpt lat="45.27804" lon="5.87785">
        <ele>309.7</ele>
        <time>2013-09-11T09:36:44.000Z</time>
      </trkpt>
      <trkpt lat="45.27788" lon="5.87769">
        <ele>307.4</ele>
        <time>2013-09-11T09:36:48.000Z</time>
      </trkpt>
      <trkpt lat="45.2777" lon="5.87751">
        <ele>307.7</ele>
        <time>2013-09-11T09:36:53.000Z</time>
      </trkpt>
      <trkpt lat="45.27746" lon="5.8773">
        <ele>308</ele>
        <time>2013-09-11T09:36:58.000Z</time>
      </trkpt>
      <trkpt lat="45.27724" lon="5.87712">
        <ele>309</ele>
        <time>2013-09-11T09:37:03.000Z</time>
      </trkpt>
      <trkpt lat="45.27694" lon="5.87692">
        <ele>309.4</ele>
        <time>2013-09-11T09:37:09.000Z</time>
      </trkpt>
      <trkpt lat="45.27676" lon="5.87681">
        <ele>309.4</ele>
        <time>2013-09-11T09:37:13.000Z</time>
      </trkpt>
      <trkpt lat="45.27666" lon="5.87671">
        <ele>309.8</ele>
        <time>2013-09-11T09:37:18.000Z</time>
      </trkpt>
      <trkpt lat="45.27642" lon="5.87661">
        <ele>309.2</ele>
        <time>2013-09-11T09:37:23.000Z</time>
      </trkpt>
      <trkpt lat="45.27626" lon="5.87648">
        <ele>311.1</ele>
        <time>2013-09-11T09:37:28.000Z</time>
      </trkpt>
      <trkpt lat="45.2761" lon="5.87636">
        <ele>314</ele>
        <time>2013-09-11T09:37:33.000Z</time>
      </trkpt>
      <trkpt lat="45.27591" lon="5.87627">
        <ele>312.8</ele>
        <time>2013-09-11T09:37:38.000Z</time>
      </trkpt>
      <trkpt lat="45.27589" lon="5.87607">
        <ele>311.4</ele>
        <time>2013-09-11T09:37:43.000Z</time>
      </trkpt>
      <trkpt lat="45.27592" lon="5.87591">
        <ele>313.1</ele>
        <time>2013-09-11T09:37:48.000Z</time>
      </trkpt>
      <trkpt lat="45.27586" lon="5.87572">
        <ele>317.2</ele>
        <time>2013-09-11T09:37:53.000Z</time>
      </trkpt>
      <trkpt lat="45.2759" lon="5.8755">
        <ele>318.5</ele>
        <time>2013-09-11T09:37:58.000Z</time>
      </trkpt>
      <trkpt lat="45.27598" lon="5.87531">
        <ele>321</ele>
        <time>2013-09-11T09:38:03.000Z</time>
      </trkpt>
      <trkpt lat="45.27607" lon="5.87517">
        <ele>319.4</ele>
        <time>2013-09-11T09:38:07.000Z</time>
      </trkpt>
      <trkpt lat="45.27614" lon="5.87497">
        <ele>317.3</ele>
        <time>2013-09-11T09:38:13.000Z</time>
      </trkpt>
      <trkpt lat="45.27609" lon="5.87477">
        <ele>315.4</ele>
        <time>2013-09-11T09:38:18.000Z</time>
      </trkpt>
      <trkpt lat="45.276" lon="5.87463">
        <ele>317.8</ele>
        <time>2013-09-11T09:38:23.000Z</time>
      </trkpt>
      <trkpt lat="45.27585" lon="5.87442">
        <ele>318.5</ele>
        <time>2013-09-11T09:38:28.000Z</time>
      </trkpt>
      <trkpt lat="45.27556" lon="5.87425">
        <ele>318.8</ele>
        <time>2013-09-11T09:38:34.000Z</time>
      </trkpt>
      <trkpt lat="45.27544" lon="5.87411">
        <ele>320.8</ele>
        <time>2013-09-11T09:38:38.000Z</time>
      </trkpt>
      <trkpt lat="45.27514" lon="5.87395">
        <ele>318.9</ele>
        <time>2013-09-11T09:38:44.000Z</time>
      </trkpt>
      <trkpt lat="45.27508" lon="5.8738">
        <ele>320.1</ele>
        <time>2013-09-11T09:38:49.000Z</time>
      </trkpt>
      <trkpt lat="45.27505" lon="5.8736">
        <ele>319.2</ele>
        <time>2013-09-11T09:38:53.000Z</time>
      </trkpt>
      <trkpt lat="45.27493" lon="5.87346">
        <ele>319.4</ele>
        <time>2013-09-11T09:38:58.000Z</time>
      </trkpt>
      <trkpt lat="45.27492" lon="5.8732">
        <ele>319.8</ele>
        <time>2013-09-11T09:39:03.000Z</time>
      </trkpt>
      <trkpt lat="45.27486" lon="5.87303">
        <ele>318</ele>
        <time>2013-09-11T09:39:08.000Z</time>
      </trkpt>
      <trkpt lat="45.27484" lon="5.87292">
        <ele>317.3</ele>
        <time>2013-09-11T09:39:13.000Z</time>
      </trkpt>
      <trkpt lat="45.27487" lon="5.8729">
        <ele>319.3</ele>
        <time>2013-09-11T09:40:08.000Z</time>
      </trkpt>
    </trkseg>
  </trk>
</gpx>